HOURLY OBS INDEX

009

Lower West, Southwest & South Coast

ALBANY AIRPORT

Site: 009999
Alt: 68.4m
10km NW of ALBANY


  Time     Wind        Temp  DP   Baro     Rain since   Rain past  Vis(m), Cloud(base in m), Weather
  local        km/h                         9am  last   hr   10m    
Mon 17:00  SSW 22/ 28  18.9 12.6  1011.8    0.0   0.0   0.0   0.0   10000|BR 720 
Mon 17:00  SSW 22/ 28  18.9 12.6  1011.8    0.0   0.0  ----   0.0   10000|BR 720 
Mon 17:30  SSW 19/ 26  17.8 12.0  1012.1    0.0   0.0   0.0   0.0   10000|BR 720 
Mon 17:30  SSW 19/ 26  17.8 12.0  1012.1    0.0   0.0  ----   0.0   10000|BR 720 
Mon 18:00    S 15/ 22  17.4 11.9  1012.4    0.0   0.0   0.0   0.0   10000|OC 720 
Mon 18:00    S 15/ 22  17.4 11.9  1012.4    0.0   0.0  ----   0.0   10000|OC 720 
Mon 18:30    S 13/ 19  17.2 11.9  1012.6    0.0   0.0   0.0   0.0   10000|OC 780 
Mon 19:00    S 13/ 17  17.0 11.9  1012.6    0.0   0.0   0.0   0.0   10000|OC 780 
Mon 19:30    S  9/ 13  16.7 12.0  1012.7    0.0   0.0   0.0   0.0   10000|OC 780 
Mon 20:00    S  9/ 11  16.6 12.0  1012.6    0.0   0.0   0.0   0.0   10000|OC 780 
Mon 20:30    S  7/ 11  16.5 12.3  1012.8    0.0   0.0   0.0   0.0   10000|OC 720 
Mon 21:00    S  7/  9  16.5 12.3  1013.0    0.0   0.0   0.0   0.0   10000|OC 720 
Mon 21:30    S  7/  9  16.4 12.4  1012.9    0.0   0.0   0.0   0.0   10000|OC 780 
Mon 22:00  SSW  7/  9  15.0 11.8  1012.4    0.0   0.0   0.0   0.0   10000|SC 780 
Mon 22:30    S  6/  7  14.1 11.4  1012.1    0.0   0.0   0.0   0.0   10000|SC 660 

BADGINGARRA AG STATION

Site: 009GBA
Alt: 284 m
56km NW of MOORA


  Time     Wind        Temp  DP   Baro     Rain since   Rain past  Vis(m), Cloud(base in m), Weather
  local        km/h                         9am  last   hr   10m    
Mon 17:00  SSW 28/ 43  22.8 13.9  ------    0.0   0.0   0.0   0.0   ----- 
Mon 17:30  SSW 28/ 39  21.5 13.7  ------    0.0   0.0   0.0   0.0   ----- 
Mon 18:00  SSW 24/ 35  20.9 14.1  ------    0.0   0.0   0.0   0.0   ----- 
Mon 18:00  SSW 24/ 35  20.9 14.1  ------    0.0   0.0  ----   0.0   ----- 
Mon 18:30  SSW 24/ 35  19.7 14.5  ------    0.0   0.0   0.0   0.0   ----- 
Mon 19:00  SSW 24/ 35  17.8 14.6  ------    0.0   0.0   0.0   0.0   ----- 
Mon 19:00  SSW 24/ 35  17.8 14.6  ------    0.0   0.0  ----   0.0   ----- 
Mon 19:30  SSW 24/ 35  17.4 14.7  ------    0.0   0.0   0.0   0.0   ----- 
Mon 20:00  SSW 24/ 37  17.4 14.5  ------    0.0   0.0   0.0   0.0   ----- 
Mon 20:30  SSW 28/ 39  17.3 14.5  ------    0.0   0.0   0.0   0.0   ----- 
Mon 21:00  SSW 24/ 37  17.2 14.5  ------    0.0   0.0   0.0   0.0   ----- 
Mon 21:30  SSW 24/ 35  17.0 14.5  ------    0.0   0.0   0.0   0.0   ----- 
Mon 21:30  SSW 24/ 35  17.0 14.5  ------    0.0   0.0  ----   0.0   ----- 
Mon 22:00  SSW 26/ 39  16.9 14.4  ------    0.0   0.0   0.0   0.0   ----- 
Mon 22:30  SSW 20/ 32  16.9 14.7  ------    0.0   0.0   0.0   0.0   ----- 

BADGINGARRA RESEARCH STN

Site: 009037
Alt: 275.0m
55km NW of MOORA


  Time     Wind        Temp  DP   Baro     Rain since   Rain past  Vis(m), Cloud(base in m), Weather
  local        km/h                         9am  last   hr   10m    
Mon 17:00  SSW 33/ 45  22.3 14.2  ------    0.0   0.0   0.0   0.0   ----- 
Mon 17:00  SSW 33/ 45  22.3 14.2  ------    0.0   0.0  ----   0.0   ----- 
Mon 17:30  SSW 35/ 43  21.1 14.0  ------    0.0   0.0   0.0   0.0   ----- 
Mon 17:30  SSW 35/ 43  21.1 14.0  ------    0.0   0.0  ----   0.0   ----- 
Mon 18:00  SSW 32/ 43  20.4 14.3  ------    0.0   0.0   0.0   0.0   ----- 
Mon 18:00  SSW 32/ 43  20.4 14.3  ------    0.0   0.0  ----   0.0   ----- 
Mon 18:30  SSW 32/ 39  19.3 14.8  ------    0.0   0.0   0.0   0.0   ----- 
Mon 19:00  SSW 32/ 43  17.6 14.5  ------    0.0   0.0   0.0   0.0   ----- 
Mon 19:30  SSW 32/ 43  17.2 14.5  ------    0.0   0.0   0.0   0.0   ----- 
Mon 20:00  SSW 32/ 43  17.2 14.3  ------    0.0   0.0   0.0   0.0   ----- 
Mon 20:30  SSW 35/ 46  17.1 14.2  ------    0.0   0.0   0.0   0.0   ----- 
Mon 21:00  SSW 33/ 45  17.0 14.3  ------    0.0   0.0   0.0   0.0   ----- 
Mon 21:30  SSW 32/ 41  16.8 14.3  ------    0.0   0.0   0.0   0.0   ----- 
Mon 22:00  SSW 35/ 46  16.7 14.2  ------    0.0   0.0   0.0   0.0   ----- 
Mon 22:30  SSW 28/ 39  16.6 14.2  ------    0.0   0.0   0.0   0.0   ----- 

BICKLEY

Site: 009240
Alt: 384.0m
27km ESE of PERTH CBD


  Time     Wind        Temp  DP   Baro     Rain since   Rain past  Vis(m), Cloud(base in m), Weather
  local        km/h                         9am  last   hr   10m    
Mon 17:00  WSW 17/ 33  24.6 14.4  ------    0.0   0.0   0.0   0.0   ----- 
Mon 17:00  WSW 17/ 33  24.6 14.4  ------    0.0   0.0  ----   0.0   ----- 
Mon 17:30  WSW 19/ 28  23.9 14.6  ------    0.0   0.0   0.0   0.0   ----- 
Mon 17:30  WSW 19/ 28  23.9 14.6  ------    0.0   0.0  ----   0.0   ----- 
Mon 18:00  WSW 22/ 32  22.6 14.4  ------    0.0   0.0   0.0   0.0   ----- 
Mon 18:00  WSW 22/ 32  22.6 14.4  ------    0.0   0.0  ----   0.0   ----- 
Mon 18:30  WSW 22/ 32  21.0 14.6  ------    0.0   0.0   0.0   0.0   ----- 
Mon 19:00  WSW 22/ 33  19.4 14.9  ------    0.0   0.0   0.0   0.0   ----- 
Mon 19:30  WSW 22/ 32  18.1 14.8  ------    0.0   0.0   0.0   0.0   ----- 
Mon 20:00  WSW 19/ 30  17.2 14.7  ------    0.0   0.0   0.0   0.0   ----- 
Mon 20:30  WSW 20/ 28  16.5 14.5  ------    0.0   0.0   0.0   0.0   ----- 
Mon 21:00  WSW 20/ 28  16.2 14.4  ------    0.0   0.0   0.0   0.0   ----- 
Mon 21:30   SW 17/ 30  16.1 14.1  ------    0.0   0.0   0.0   0.0   ----- 
Mon 22:00   SW 19/ 26  16.2 13.7  ------    0.0   0.0   0.0   0.0   ----- 
Mon 22:30  WSW 20/ 30  15.9 13.2  ------    0.0   0.0   0.0   0.0   ----- 

BREMER BAY AG STATION

Site: 009UPW
Alt: 100m
41km ENE of ESPERANCE


  Time     Wind        Temp  DP   Baro     Rain since   Rain past  Vis(m), Cloud(base in m), Weather
  local        km/h                         9am  last   hr   10m    
Mon 17:00    E 17/ 26  26.5 14.3  ------    0.0   0.0   0.0   0.0   ----- 
Mon 17:00    E 17/ 26  26.5 14.3  ------    0.0   0.0  ----   0.0   ----- 
Mon 17:00    E 17/ 26  26.5 14.3  ------    0.0   0.0  ----   0.0   ----- 
Mon 17:12  WSW 30/ 65  22.3 15.6  ------    0.2   0.2  ----   0.0   ----- 
Mon 17:30    S 24/ 37  19.5 14.6  ------    3.0   2.8   3.0   1.0   ----- 
Mon 17:30    S 24/ 37  19.5 14.6  ------    3.0   0.0  ----   1.0   ----- 
Mon 18:00  ESE 15/ 20  19.3 15.5  ------    5.4   2.4   5.4   0.8   ----- 
Mon 18:00  ESE 15/ 20  19.3 15.5  ------    5.4   0.0  ----   0.8   ----- 
Mon 18:00  ESE 15/ 20  19.3 15.5  ------    5.4   0.0  ----   0.8   ----- 
Mon 18:00  ESE 15/ 20  19.3 15.5  ------    5.4   0.0  ----   0.8   ----- 
Mon 18:30    E 22/ 35  19.5 15.7  ------    6.6   1.2   3.6   0.4   ----- 
Mon 18:30    E 22/ 35  19.5 15.7  ------    6.6   0.0  ----   0.4   ----- 
Mon 19:00    E 28/ 45  21.0 14.7  ------    6.6   0.0   1.2   0.0   ----- 
Mon 19:30  ENE 26/ 35  21.0 15.0  ------    6.6   0.0   0.0   0.0   ----- 
Mon 19:30  ENE 26/ 35  21.0 15.0  ------    6.6   0.0  ----   0.0   ----- 
Mon 20:00  ENE 22/ 37  21.1 14.6  ------    6.6   0.0   0.0   0.0   ----- 
Mon 20:30  ENE 22/ 35  21.4 13.0  ------    6.6   0.0   0.0   0.0   ----- 
Mon 20:30  ENE 22/ 35  21.4 13.0  ------    6.6   0.0  ----   0.0   ----- 
Mon 21:00  ENE 22/ 39  21.3 13.0  ------    6.6   0.0   0.0   0.0   ----- 
Mon 21:00  ENE 22/ 39  21.3 13.0  ------    6.6   0.0  ----   0.0   ----- 
Mon 21:30   NE 24/ 35  20.6 13.7  ------    6.6   0.0   0.0   0.0   ----- 
Mon 21:30   NE 24/ 35  20.6 13.7  ------    6.6   0.0  ----   0.0   ----- 
Mon 22:00   NE 24/ 35  20.4 13.9  ------    6.6   0.0   0.0   0.0   ----- 
Mon 22:00   NE 24/ 35  20.4 13.9  ------    6.6   0.0  ----   0.0   ----- 
Mon 22:30   NE 20/ 32  20.6 13.4  ------    6.6   0.0   0.0   0.0   ----- 

BRIDGETOWN

Site: 009617
Alt: 178.7m
33km N of MANJIMUP


  Time     Wind        Temp  DP   Baro     Rain since   Rain past  Vis(m), Cloud(base in m), Weather
  local        km/h                         9am  last   hr   10m    
Mon 17:00    S 17/ 26  25.8 14.3  1009.9    0.0   0.0   0.0   0.0   ----- 
Mon 17:00    S 17/ 26  25.8 14.3  1009.9    0.0   0.0  ----   0.0   ----- 
Mon 17:30    S 15/ 24  24.1 13.9  1010.3    0.0   0.0   0.0   0.0   ----- 
Mon 17:30    S 15/ 24  24.1 13.9  1010.3    0.0   0.0  ----   0.0   ----- 
Mon 18:00    S 15/ 26  22.4 13.5  1010.8    0.0   0.0   0.0   0.0   ----- 
Mon 18:00    S 15/ 26  22.4 13.5  1010.8    0.0   0.0  ----   0.0   ----- 
Mon 18:30    S 17/ 32  19.8 12.6  1011.3    0.0   0.0   0.0   0.0   ----- 
Mon 19:00    S 13/ 24  18.5 12.3  1011.7    0.0   0.0   0.0   0.0   ----- 
Mon 19:30    S 15/ 24  17.3 12.0  1011.9    0.0   0.0   0.0   0.0   ----- 
Mon 20:00    S 11/ 22  16.4 11.6  1012.3    0.0   0.0   0.0   0.0   ----- 
Mon 20:30    S  7/ 11  15.9 12.1  1012.6    0.0   0.0   0.0   0.0   ----- 
Mon 21:00    S 11/ 17  16.2 11.8  1012.7    0.0   0.0   0.0   0.0   ----- 
Mon 21:30    S 13/ 24  15.9 11.3  1012.7    0.0   0.0   0.0   0.0   ----- 
Mon 22:00    S 11/ 20  15.3 10.7  1012.8    0.0   0.0   0.0   0.0   ----- 
Mon 22:30    S  7/ 13  14.8 10.6  1013.0    0.0   0.0   0.0   0.0   ----- 

BUNBURY

Site: 009965
Alt: 5.2m
2km S of BUNBURY


  Time     Wind        Temp  DP   Baro     Rain since   Rain past  Vis(m), Cloud(base in m), Weather
  local        km/h                         9am  last   hr   10m    
Mon 17:00   SW 20/ 33  26.8 15.5  1008.9    0.0   0.0   0.0   0.0   ----- 
Mon 17:00   SW 20/ 33  26.8 15.5  1008.9    0.0   0.0  ----   0.0   ----- 
Mon 17:30  SSW 24/ 33  26.3 13.8  1009.4    0.0   0.0   0.0   0.0   ----- 
Mon 17:30  SSW 24/ 33  26.3 13.8  1009.4    0.0   0.0  ----   0.0   ----- 
Mon 18:00  SSW 26/ 37  24.2 13.4  1009.9    0.0   0.0   0.0   0.0   ----- 
Mon 18:00  SSW 26/ 37  24.2 13.4  1009.9    0.0   0.0  ----   0.0   ----- 
Mon 18:30  SSW 28/ 39  21.9 12.7  1010.4    0.0   0.0   0.0   0.0   ----- 
Mon 19:00    S 22/ 33  20.2 12.4  1010.7    0.0   0.0   0.0   0.0   ----- 
Mon 19:30    S 17/ 26  19.1 12.4  1011.0    0.0   0.0   0.0   0.0   ----- 
Mon 20:00    S 19/ 26  18.2 12.2  1011.4    0.0   0.0   0.0   0.0   ----- 
Mon 20:30    S 17/ 20  17.6 12.1  1011.7    0.0   0.0   0.0   0.0   ----- 
Mon 21:00    S 17/ 22  16.9 11.8  1012.2    0.0   0.0   0.0   0.0   ----- 
Mon 21:30    S 15/ 22  16.3 11.7  1012.5    0.0   0.0   0.0   0.0   ----- 
Mon 22:00    S 13/ 20  15.9 11.7  1012.7    0.0   0.0   0.0   0.0   ----- 
Mon 22:30    S 11/ 17  15.3 11.1  1012.9    0.0   0.0   0.0   0.0   ----- 

BUSSELTON AERO

Site: 009603
Alt: 16.3m
5km ESE of BUSSELTON


  Time     Wind        Temp  DP   Baro     Rain since   Rain past  Vis(m), Cloud(base in m), Weather
  local        km/h                         9am  last   hr   10m    
Mon 17:00    S 35/ 46  22.5 12.2  1010.7    0.0   0.0   0.0   0.0   ----- 
Mon 17:00    S 35/ 46  22.5 12.2  1010.7    0.0   0.0  ----   0.0   ----- 
Mon 17:30    S 37/ 45  21.1 12.3  1011.1    0.0   0.0   0.0   0.0   ----- 
Mon 17:30    S 37/ 45  21.1 12.3  1011.1    0.0   0.0  ----   0.0   ----- 
Mon 18:00    S 32/ 41  20.0 12.0  1011.5    0.0   0.0   0.0   0.0   ----- 
Mon 18:00    S 32/ 41  20.0 12.0  1011.5    0.0   0.0  ----   0.0   ----- 
Mon 18:30    S 30/ 35  19.2 12.0  1011.6    0.0   0.0   0.0   0.0   ----- 
Mon 19:00    S 28/ 37  18.0 11.6  1011.8    0.0   0.0   0.0   0.0   ----- 
Mon 19:30    S 19/ 22  16.8 11.3  1011.7    0.0   0.0   0.0   0.0   ----- 
Mon 20:00    S 24/ 32  16.6 11.1  1012.1    0.0   0.0   0.0   0.0   ----- 
Mon 20:30    S 20/ 28  16.1 10.6  1012.4    0.0   0.0   0.0   0.0   ----- 
Mon 21:00    S 19/ 26  15.8 10.8  1012.6    0.0   0.0   0.0   0.0   ----- 
Mon 21:30    S 17/ 20  15.4 10.2  1012.8    0.0   0.0   0.0   0.0   ----- 
Mon 22:00  SSW 15/ 19  15.1 10.5  1012.9    0.0   0.0   0.0   0.0   ----- 
Mon 22:30  SSW  9/ 13  14.5 10.3  1013.0    0.0   0.0   0.0   0.0   ----- 

BUSSELTON JETTY

Site: 009937
Alt: 3.0m
4km NNW of BUSSELTON


  Time     Wind        Temp  DP   Baro     Rain since   Rain past  Vis(m), Cloud(base in m), Weather
  local        km/h                         9am  last   hr   10m    
Mon 17:00  SSW 41/ 52 --------  ------   ----  ----  ----  ----   ----- 
Mon 17:00  SSW 41/ 52 --------  ------   ----  ----  ----  ----   ----- 
Mon 17:30    S 37/ 48 --------  ------   ----  ----  ----  ----   ----- 
Mon 17:30    S 37/ 48 --------  ------   ----  ----  ----  ----   ----- 
Mon 18:00    S 35/ 43 --------  ------   ----  ----  ----  ----   ----- 
Mon 18:00    S 35/ 43 --------  ------   ----  ----  ----  ----   ----- 
Mon 18:30    S 35/ 46 --------  ------   ----  ----  ----  ----   ----- 
Mon 19:00    S 30/ 35 --------  ------   ----  ----  ----  ----   ----- 
Mon 19:30    S 32/ 39 --------  ------   ----  ----  ----  ----   ----- 
Mon 20:00  SSW 28/ 33 --------  ------   ----  ----  ----  ----   ----- 
Mon 20:30    S 26/ 32 --------  ------   ----  ----  ----  ----   ----- 
Mon 21:00    S 28/ 35 --------  ------   ----  ----  ----  ----   ----- 
Mon 21:30  SSW 24/ 28 --------  ------   ----  ----  ----  ----   ----- 
Mon 22:00  SSW 22/ 28 --------  ------   ----  ----  ----  ----   ----- 
Mon 22:30  SSW 22/ 26 --------  ------   ----  ----  ----  ----   ----- 

CAPE LEEUWIN

Site: 009518
Alt: 13.0m
47km S of MARGARET RIVER


  Time     Wind        Temp  DP   Baro     Rain since   Rain past  Vis(m), Cloud(base in m), Weather
  local        km/h                         9am  last   hr   10m    
Mon 17:00    S 22/ 30  19.3 11.7  1013.0    0.0   0.0   0.0   0.0   ----- 
Mon 17:00    S 22/ 30  19.3 11.7  1013.0    0.0   0.0  ----   0.0   ----- 
Mon 17:30    S 24/ 30  18.2 11.4  1012.9    0.0   0.0   0.0   0.0   ----- 
Mon 17:30    S 24/ 30  18.2 11.4  1012.9    0.0   0.0  ----   0.0   ----- 
Mon 18:00    S 22/ 28  18.3 11.3  1013.0    0.0   0.0   0.0   0.0   ----- 
Mon 18:00    S 22/ 28  18.3 11.3  1013.0    0.0   0.0  ----   0.0   ----- 
Mon 18:30    S 20/ 26  17.6 11.1  1013.1    0.0   0.0   0.0   0.0   ----- 
Mon 19:00    S 20/ 28  17.3 10.8  1013.2    0.0   0.0   0.0   0.0   ----- 
Mon 19:30    S 24/ 30  16.6 10.4  1013.3    0.0   0.0   0.0   0.0   ----- 
Mon 20:00    S 20/ 26  16.3 10.0  1013.3    0.0   0.0   0.0   0.0   ----- 
Mon 20:30    S 19/ 24  16.3 10.4  1013.4    0.0   0.0   0.0   0.0   ----- 
Mon 21:00    S 20/ 24  16.1 10.2  1013.6    0.0   0.0   0.0   0.0   ----- 
Mon 21:30    S 19/ 26  16.4 10.1  1013.8    0.0   0.0   0.0   0.0   ----- 
Mon 22:00  SSW 17/ 20  16.5 10.0  1013.6    0.0   0.0   0.0   0.0   ----- 
Mon 22:30  SSW 15/ 20  16.6  9.3  1013.7    0.0   0.0   0.0   0.0   ----- 

CAPE NATURALISTE

Site: 009519
Alt: 109.0m
34km WNW of BUSSELTON


  Time     Wind        Temp  DP   Baro     Rain since   Rain past  Vis(m), Cloud(base in m), Weather
  local        km/h                         9am  last   hr   10m    
Mon 17:00  SSW 50/ 69  18.7 12.5  1010.8    0.0   0.0   0.0   0.0   ----- 
Mon 17:00  SSW 50/ 69  18.7 12.5  1010.8    0.0   0.0  ----   0.0   ----- 
Mon 17:30  SSW 48/ 63  18.1 12.3  1010.9    0.0   0.0   0.0   0.0   ----- 
Mon 17:30  SSW 48/ 63  18.1 12.3  1010.9    0.0   0.0  ----   0.0   ----- 
Mon 18:00  SSW 41/ 56  17.8 12.0  1011.3    0.0   0.0   0.0   0.0   ----- 
Mon 18:00  SSW 41/ 56  17.8 12.0  1011.3    0.0   0.0  ----   0.0   ----- 
Mon 18:30  SSW 39/ 56  17.1 11.6  1011.6    0.0   0.0   0.0   0.0   ----- 
Mon 19:00  SSW 39/ 50  16.1 11.3  1011.8    0.0   0.0   0.0   0.0   ----- 
Mon 19:30    S 35/ 46  15.7 11.7  1012.1    0.0   0.0   0.0   0.0   ----- 
Mon 20:00    S 33/ 43  15.3 11.5  1012.5    0.0   0.0   0.0   0.0   ----- 
Mon 20:30    S 28/ 39  15.4 10.6  1012.6    0.0   0.0   0.0   0.0   ----- 
Mon 21:00    S 26/ 35  14.9 10.1  1013.0    0.0   0.0   0.0   0.0   ----- 
Mon 21:30    S 22/ 28  14.3  9.9  1013.2    0.0   0.0   0.0   0.0   ----- 
Mon 22:00    S 22/ 32  14.0 10.0  1013.5    0.0   0.0   0.0   0.0   ----- 
Mon 22:30    S 24/ 30  13.7  9.7  1013.4    0.0   0.0   0.0   0.0   ----- 

COLLIE EAST

Site: 009994
Alt: 200.0m
2km ESE of COLLIE


  Time     Wind        Temp  DP   Baro     Rain since   Rain past  Vis(m), Cloud(base in m), Weather
  local        km/h                         9am  last   hr   10m    
Mon 17:00  SSW 13/ 24  29.5 12.9  ------    0.0   0.0   0.0   0.0   ----- 
Mon 17:00  SSW 13/ 24  29.5 12.9  ------    0.0   0.0  ----   0.0   ----- 
Mon 17:30  SSW  9/ 19  28.9 13.2  ------    0.0   0.0   0.0   0.0   ----- 
Mon 17:30  SSW  9/ 19  28.9 13.2  ------    0.0   0.0  ----   0.0   ----- 
Mon 18:00   SW 11/ 20  27.0 14.4  ------    0.0   0.0   0.0   0.0   ----- 
Mon 18:00   SW 11/ 20  27.0 14.4  ------    0.0   0.0  ----   0.0   ----- 
Mon 18:30   SW 15/ 26  24.4 14.5  ------    0.0   0.0   0.0   0.0   ----- 
Mon 19:00  SSW 11/ 19  22.6 13.9  ------    0.0   0.0   0.0   0.0   ----- 
Mon 19:30   SW  9/ 17  21.2 13.6  ------    0.0   0.0   0.0   0.0   ----- 
Mon 20:00  SSW  9/ 20  19.9 13.1  ------    0.0   0.0   0.0   0.0   ----- 
Mon 20:30  SSW  7/ 15  19.1 13.1  ------    0.0   0.0   0.0   0.0   ----- 
Mon 21:00    S  4/  7  18.4 12.6  ------    0.0   0.0   0.0   0.0   ----- 
Mon 21:30    S  9/ 19  18.0 12.0  ------    0.0   0.0   0.0   0.0   ----- 
Mon 22:00    S  7/ 15  17.2 11.9  ------    0.0   0.0   0.0   0.0   ----- 
Mon 22:30    S  6/ 13  16.4 11.6  ------    0.0   0.0   0.0   0.0   ----- 

COOMALBIDGUP AG STATION

Site: 009MLP
Alt: 90m
57km WNW of ESPERANCE


  Time     Wind        Temp  DP   Baro     Rain since   Rain past  Vis(m), Cloud(base in m), Weather
  local        km/h                         9am  last   hr   10m    
Mon 17:00  ESE 20/ 33  19.1 17.7  ------    0.8   0.6   0.8   0.2   ----- 
Mon 17:30    S  9/ 19  19.5 18.2  ------    0.8   0.0   0.6   0.0   ----- 
Mon 18:00    S  4/  9  19.3 18.1  ------    0.8   0.0   0.0   0.0   ----- 
Mon 18:00    S  4/  9  19.3 18.1  ------    0.8   0.0  ----   0.0   ----- 
Mon 18:30  SSW  9/ 19  18.9 17.8  ------    0.8   0.0   0.0   0.0   ----- 
Mon 19:00  WSW 13/ 20  18.7 17.7  ------    0.8   0.0   0.0   0.0   ----- 
Mon 19:00  WSW 13/ 20  18.7 17.7  ------    0.8   0.0  ----   0.0   ----- 
Mon 19:30    S 15/ 26  18.5 17.6  ------    1.0   0.2   0.2   0.2   ----- 
Mon 20:00  SSW 11/ 20  18.6 17.7  ------    1.0   0.0   0.2   0.0   ----- 
Mon 20:30   SW  7/ 15  18.1 17.3  ------    1.0   0.0   0.0   0.0   ----- 
Mon 21:00  WSW  4/  9  17.9 17.1  ------    1.0   0.0   0.0   0.0   ----- 
Mon 21:30    W  4/  7  17.5 16.8  ------    1.0   0.0   0.0   0.0   ----- 
Mon 21:30    W  4/  7  17.5 16.8  ------    1.0   0.0  ----   0.0   ----- 
Mon 22:00    W  6/ 13  17.6 17.0  ------    1.0   0.0   0.0   0.0   ----- 
Mon 22:30  WSW  7/ 17  17.5 16.9  ------    1.0   0.0   0.0   0.0   ----- 

DARDANUP

Site: 009GDA
Alt: 24 m
13km E of BUNBURY


  Time     Wind        Temp  DP   Baro     Rain since   Rain past  Vis(m), Cloud(base in m), Weather
  local        km/h                         9am  last   hr   10m    
Mon 17:00   SW 15/---  28.7 16.4  ------    0.0   0.0   0.0   0.0   ----- 
Mon 17:00   SW 15/---  28.7 16.4  ------    0.0   0.0  ----   0.0   ----- 
Mon 17:30   SW 20/---  27.0 16.3  ------    0.0   0.0   0.0   0.0   ----- 
Mon 17:30   SW 20/---  27.0 16.3  ------    0.0   0.0  ----   0.0   ----- 
Mon 18:00  SSW 17/---  25.6 16.2  ------    0.0   0.0   0.0   0.0   ----- 
Mon 18:00  SSW 17/---  25.6 16.2  ------    0.0   0.0  ----   0.0   ----- 
Mon 18:30  SSW 17/---  23.4 15.9  ------    0.0   0.0   0.0   0.0   ----- 
Mon 19:00  SSW 15/---  20.8 14.8  ------    0.0   0.0   0.0   0.0   ----- 
Mon 19:30  SSW  7/---  19.2 14.6  ------    0.0   0.0   0.0   0.0   ----- 
Mon 20:00  SSW  2/---  18.2 14.3  ------    0.0   0.0   0.0   0.0   ----- 
Mon 20:30  SSW  2/---  17.2 13.9  ------    0.0   0.0   0.0   0.0   ----- 
Mon 20:30  SSW  2/---  17.2 13.9  ------    0.0   0.0  ----   0.0   ----- 
Mon 21:00  SSW  2/---  16.6 13.8  ------    0.0   0.0   0.0   0.0   ----- 
Mon 21:30  SSW  2/---  16.0 13.4  ------    0.0   0.0   0.0   0.0   ----- 
Mon 22:00  SSW  2/---  15.5 13.3  ------    0.0   0.0   0.0   0.0   ----- 
Mon 22:30  SSW  2/---  14.8 12.9  ------    0.0   0.0   0.0   0.0   ----- 

DONNYBROOK AG STATION

Site: 009GDB
Alt: 71 m
33km SE of BUNBURY


  Time     Wind        Temp  DP   Baro     Rain since   Rain past  Vis(m), Cloud(base in m), Weather
  local        km/h                         9am  last   hr   10m    
Mon 17:00  SSW 15/ 28  26.9 15.2  ------    0.0   0.0   0.0   0.0   ----- 
Mon 17:30  SSW 13/ 28  25.2 14.7  ------    0.0   0.0   0.0   0.0   ----- 
Mon 18:00  SSW 11/ 28  23.0 14.6  ------    0.0   0.0   0.0   0.0   ----- 
Mon 18:00  SSW 11/ 28  23.0 14.6  ------    0.0   0.0  ----   0.0   ----- 
Mon 18:30  SSW  9/ 24  21.3 14.1  ------    0.0   0.0   0.0   0.0   ----- 
Mon 19:00  SSW  7/ 19  19.8 13.5  ------    0.0   0.0   0.0   0.0   ----- 
Mon 19:00  SSW  7/ 19  19.8 13.5  ------    0.0   0.0  ----   0.0   ----- 
Mon 19:30    S  6/ 11  18.6 13.4  ------    0.0   0.0   0.0   0.0   ----- 
Mon 20:00    S  7/ 13  17.8 13.3  ------    0.0   0.0   0.0   0.0   ----- 
Mon 20:30    S  4/ 13  17.0 12.6  ------    0.0   0.0   0.0   0.0   ----- 
Mon 21:00  SSW  7/ 17  16.4 12.9  ------    0.0   0.0   0.0   0.0   ----- 
Mon 21:30    S  4/ 11  15.6 12.6  ------    0.0   0.0   0.0   0.0   ----- 
Mon 21:30    S  4/ 11  15.6 12.6  ------    0.0   0.0  ----   0.0   ----- 
Mon 22:00    S  2/  7  15.0 12.7  ------    0.0   0.0   0.0   0.0   ----- 
Mon 22:30    C  0/  6  15.1 12.5  ------    0.0   0.0   0.0   0.0   ----- 

DWELLINGUP

Site: 009538
Alt: 267.0m
37km ESE of MANDURAH


  Time     Wind        Temp  DP   Baro     Rain since   Rain past  Vis(m), Cloud(base in m), Weather
  local        km/h                         9am  last   hr   10m    
Mon 17:00  WSW 19/ 33  27.2 12.0  1009.5    0.0   0.0   0.0   0.0   ----- 
Mon 17:00  WSW 19/ 33  27.2 12.0  1009.5    0.0   0.0  ----   0.0   ----- 
Mon 17:30   SW 17/ 28  26.8 12.8  1009.6    0.0   0.0   0.0   0.0   ----- 
Mon 17:30   SW 17/ 28  26.8 12.8  1009.6    0.0   0.0  ----   0.0   ----- 
Mon 18:00  WSW 22/ 37  25.0 12.9  1010.0    0.0   0.0   0.0   0.0   ----- 
Mon 18:00  WSW 22/ 37  25.0 12.9  1010.0    0.0   0.0  ----   0.0   ----- 
Mon 18:30  WSW 20/ 32  23.2 13.1  1010.2    0.0   0.0   0.0   0.0   ----- 
Mon 19:00  WSW 13/ 24  21.7 13.1  1010.4    0.0   0.0   0.0   0.0   ----- 
Mon 19:30  WSW 17/ 30  20.4 12.9  1010.6    0.0   0.0   0.0   0.0   ----- 
Mon 20:00   SW 15/ 30  19.6 12.8  1010.8    0.0   0.0   0.0   0.0   ----- 
Mon 20:30   SW 13/ 24  19.1 12.6  1011.2    0.0   0.0   0.0   0.0   ----- 
Mon 21:00  SSW 13/ 22  18.8 12.3  1011.4    0.0   0.0   0.0   0.0   ----- 
Mon 21:30  SSW 13/ 22  18.4 12.2  1011.8    0.0   0.0   0.0   0.0   ----- 
Mon 22:00  SSW 13/ 19  17.5 12.2  1012.0    0.0   0.0   0.0   0.0   ----- 
Mon 22:30  SSW 15/ 20  16.6 12.0  1012.3    0.0   0.0   0.0   0.0   ----- 

ESPERANCE

Site: 009789
Alt: 25.0m
3km N of ESPERANCE


  Time     Wind        Temp  DP   Baro     Rain since   Rain past  Vis(m), Cloud(base in m), Weather
  local        km/h                         9am  last   hr   10m    
Mon 17:00  WSW 19/ 32  21.0 16.8  1009.1    0.4   0.2   0.4   0.2    7000|SC1710 SC2220 OC3150 
Mon 17:00  WSW 19/ 32  21.0 16.8  1009.1    0.4   0.0  ----   0.2    7000|SC1710 SC2220 OC3150 
Mon 17:30   NW 13/ 17  19.6 17.7  1008.5    1.8   1.4   1.8   0.4    6000|SC1650 BR2010 BR2640 
Mon 17:30   NW 13/ 17  19.6 17.7  1008.5    1.8   0.0  ----   0.4    6000|SC1650 BR2010 BR2640 
Mon 17:52  NNE 20/ 24  21.2 17.2  1007.7    2.0   0.2  ----   0.0   10000|SC1290 SC1920 BR2430 
Mon 17:52  NNE 20/ 24  21.2 17.2  1007.7    2.0   0.0  ----   0.0   10000|SC1290 SC1920 BR2430 
Mon 17:52  NNE 20/ 24  21.2 17.2  1007.7    2.0   0.0  ----   0.0   10000|SC1290 SC1920 BR2430 
Mon 18:00   NE 24/ 37  20.9 16.9  1007.5    2.0   0.0   1.6   0.0   10000|SC1290 SC2130 BR3600 
Mon 18:00   NE 24/ 37  20.9 16.9  1007.5    2.0   0.0  ----   0.0   10000|SC1290 SC2130 BR3600 
Mon 18:30   NE 20/ 35  21.7 15.8  1007.3    2.0   0.0   0.2   0.0   10000|SC3000 SC3600 
Mon 19:00  ESE 13/ 28  23.1 14.4  1007.5    2.0   0.0   0.0   0.0   10000 
Mon 19:30    S  4/  9  22.6 14.4  1008.5    2.0   0.0   0.0   0.0   10000 
Mon 20:00  ENE 17/ 32  23.7 13.6  1007.8    2.0   0.0   0.0   0.0   10000 
Mon 20:30   NE 15/ 22  23.3 13.8  1007.9    2.0   0.0   0.0   0.0   10000 
Mon 21:00   NW  9/ 13  22.8 13.3  1009.1    2.0   0.0   0.0   0.0   10000 
Mon 21:23    W 19/ 24  19.4 15.7  1009.6    2.0   0.0  ----   0.0    7000 
Mon 21:30    W 15/ 24  18.9 15.8  1009.4    2.0   0.0   0.0   0.0    6000 
Mon 22:00    W 13/ 20  18.4 16.6  1009.5    2.0   0.0   0.0   0.0    6000 
Mon 22:30    W 11/ 17  18.1 16.6  1009.4    2.0   0.0   0.0   0.0    7000 

ESPERANCE AERO

Site: 009542
Alt: 142.0m
21km NNW of ESPERANCE


  Time     Wind        Temp  DP   Baro     Rain since   Rain past  Vis(m), Cloud(base in m), Weather
  local        km/h                         9am  last   hr   10m    
Mon 17:00    W 24/ 32  20.6 17.8  1009.9    0.2   0.2   0.2   0.2   10000|OC3300 
Mon 17:00    W 24/ 32  20.6 17.8  1009.9    0.2   0.0  ----   0.2   10000|OC3300 
Mon 17:30  SSE 15/ 17  20.8 18.0  1009.4    1.0   0.8   1.0   0.2   10000|OC3300 
Mon 17:30  SSE 15/ 17  20.8 18.0  1009.4    1.0   0.0  ----   0.2   10000|OC3300 
Mon 18:00  ENE 11/ 17  22.2 16.7  1008.9    1.2   0.2   1.0   0.0   10000|SC2220 SC3000 BR3600 
Mon 18:00  ENE 11/ 17  22.2 16.7  1008.9    1.2   0.0  ----   0.0   10000|SC2220 SC3000 BR3600 
Mon 18:13  ENE 35/ 39  21.5 16.2  1007.5    1.2   0.0  ----   0.0   10000|SC1320 SC2130 SC3000 
Mon 18:13  ENE 35/ 39  21.5 16.2  1007.5    1.2   0.0  ----   0.0   10000|SC1320 SC2130 SC3000 
Mon 18:30  ENE 22/ 35  21.8 15.2  1007.4    1.2   0.0   0.2   0.0   10000|SC1080 SC2130 SC3000 
Mon 19:00    E 19/ 26  21.3 15.2  1007.9    1.2   0.0   0.0   0.0   10000 
Mon 19:30    E 17/ 22  22.3 14.4  1009.2    1.2   0.0   0.0   0.0   10000 
Mon 20:00    E 19/ 26  22.3 14.4  1008.4    1.2   0.0   0.0   0.0   10000|SC3600 
Mon 20:30  ENE 20/ 33  23.0 13.8  1008.5    1.2   0.0   0.0   0.0   10000 
Mon 21:00    N  7/ 13  21.4 14.6  1010.0    1.6   0.4   0.4   0.0   10000|SC2520 SC3300 
Mon 21:30  WNW 13/ 17  18.4 16.9  1010.4    1.6   0.0   0.4   0.0   10000|OC3600 
Mon 22:00  WNW 11/ 15  18.0 16.9  1010.3    1.6   0.0   0.0   0.0    9000 
Mon 22:30  WNW  9/ 11  17.4 16.4  1009.8    1.6   0.0   0.0   0.0    8000 
Mon 22:35  WNW 11/ 15  17.3 16.3  1009.9    1.6   0.0  ----   0.0    6000 

ESPERANCE AG STATION

Site: 009GES
Alt: 158 m
158km NNW of ESPERANCE


  Time     Wind        Temp  DP   Baro     Rain since   Rain past  Vis(m), Cloud(base in m), Weather
  local        km/h                         9am  last   hr   10m    
Mon 17:00   SW 11/ 20  21.2 16.7  ------    0.0   0.0   0.0   0.0   ----- 
Mon 17:30   SE  6/ 11  20.4 17.5  ------    0.8   0.8   0.8   0.0   ----- 
Mon 18:00   NE  6/ 15  21.0 17.0  ------    1.0   0.2   1.0   0.0   ----- 
Mon 18:00   NE  6/ 15  21.0 17.0  ------    1.0   0.0  ----   0.0   ----- 
Mon 18:30  ENE 13/ 24  21.1 15.4  ------    1.0   0.0   0.2   0.0   ----- 
Mon 19:00    E 11/ 24  21.0 15.1  ------    1.0   0.0   0.0   0.0   ----- 
Mon 19:00    E 11/ 24  21.0 15.1  ------    1.0   0.0  ----   0.0   ----- 
Mon 19:30  ESE  6/ 15  21.0 14.5  ------    1.0   0.0   0.0   0.0   ----- 
Mon 20:00    E 11/ 24  21.7 14.6  ------    1.0   0.0   0.0   0.0   ----- 
Mon 20:30  ENE 13/ 26  22.1 13.8  ------    1.0   0.0   0.0   0.0   ----- 
Mon 21:00  NNE  7/ 17  22.2 13.5  ------    1.0   0.0   0.0   0.0   ----- 
Mon 21:30    W 11/ 20  18.9 16.4  ------    1.0   0.0   0.0   0.0   ----- 
Mon 21:30    W 11/ 20  18.9 16.4  ------    1.0   0.0  ----   0.0   ----- 
Mon 22:00  WSW  4/  9  18.3 16.5  ------    1.0   0.0   0.0   0.0   ----- 
Mon 22:30  WNW  2/  7  17.8 16.9  ------    1.0   0.0   0.0   0.0   ----- 

FLOREAT PARK AG STATION

Site: 009GFL
Alt: 158 m
7km W of PERTH CBD


  Time     Wind        Temp  DP   Baro     Rain since   Rain past  Vis(m), Cloud(base in m), Weather
  local        km/h                         9am  last   hr   10m    
Mon 17:00    S 13/ 30  22.1 16.3  ------    0.0   0.0   0.0   0.0   ----- 
Mon 17:30  SSW 11/ 24  21.3 16.0  ------    0.0   0.0   0.0   0.0   ----- 
Mon 18:00  SSW 13/ 28  20.4 16.0  ------    0.0   0.0   0.0   0.0   ----- 
Mon 18:00  SSW 13/ 28  20.4 16.0  ------    0.0   0.0  ----   0.0   ----- 
Mon 18:30  SSW 13/ 30  19.8 15.8  ------    0.0   0.0   0.0   0.0   ----- 
Mon 19:00  SSW 15/ 26  19.2 15.4  ------    0.0   0.0   0.0   0.0   ----- 
Mon 19:00  SSW 15/ 26  19.2 15.4  ------    0.0   0.0  ----   0.0   ----- 
Mon 19:30  SSW 11/ 24  18.9 15.3  ------    0.0   0.0   0.0   0.0   ----- 
Mon 20:00  SSW  9/ 20  18.7 15.2  ------    0.0   0.0   0.0   0.0   ----- 
Mon 20:30  SSW 11/ 24  18.7 15.0  ------    0.0   0.0   0.0   0.0   ----- 
Mon 21:00  SSW  9/ 19  18.9 15.1  ------    0.0   0.0   0.0   0.0   ----- 
Mon 21:30  SSW  9/ 32  19.0 15.2  ------    0.0   0.0   0.0   0.0   ----- 
Mon 21:30  SSW  9/ 32  19.0 15.2  ------    0.0   0.0  ----   0.0   ----- 
Mon 22:00  SSW  7/ 26  18.5 15.0  ------    0.0   0.0   0.0   0.0   ----- 
Mon 22:30  SSW  9/ 24  18.4 15.3  ------    0.0   0.0   0.0   0.0   ----- 

FRANKLAND

Site: 009GFR
Alt: 224 m
69km WNW of MOUNT BARKER


  Time     Wind        Temp  DP   Baro     Rain since   Rain past  Vis(m), Cloud(base in m), Weather
  local        km/h                         9am  last   hr   10m    
Mon 17:00    S 13/ 26  24.4 12.8  ------    0.0   0.0   0.0   0.0   ----- 
Mon 17:30    S 17/ 28  22.4 12.5  ------    0.0   0.0   0.0   0.0   ----- 
Mon 18:00    S 15/ 30  20.9 12.3  ------    0.0   0.0   0.0   0.0   ----- 
Mon 18:00    S 15/ 30  20.9 12.3  ------    0.0   0.0  ----   0.0   ----- 
Mon 18:30    S 17/ 30  18.9 11.9  ------    0.0   0.0   0.0   0.0   ----- 
Mon 19:00    S 13/ 26  17.5 11.5  ------    0.0   0.0   0.0   0.0   ----- 
Mon 19:00    S 13/ 26  17.5 11.5  ------    0.0   0.0  ----   0.0   ----- 
Mon 19:30    S 13/ 24  16.4 11.2  ------    0.0   0.0   0.0   0.0   ----- 
Mon 20:00    S 11/ 19  15.6 11.0  ------    0.0   0.0   0.0   0.0   ----- 
Mon 20:30    S  7/ 13  15.2 11.0  ------    0.0   0.0   0.0   0.0   ----- 
Mon 21:00    S  7/ 13  15.3 11.3  ------    0.0   0.0   0.0   0.0   ----- 
Mon 21:30    S  9/ 17  15.8 11.4  ------    0.0   0.0   0.0   0.0   ----- 
Mon 21:30    S  9/ 17  15.8 11.4  ------    0.0   0.0  ----   0.0   ----- 
Mon 22:00  SSW  6/ 11  15.9 11.7  ------    0.0   0.0   0.0   0.0   ----- 
Mon 22:30    S  7/ 13  15.6 11.6  ------    0.0   0.0   0.0   0.0   ----- 

GARDEN ISLAND HSF

Site: 009256
Alt: 6.0m
32km N of MANDURAH


  Time     Wind        Temp  DP   Baro     Rain since   Rain past  Vis(m), Cloud(base in m), Weather
  local        km/h                         9am  last   hr   10m    
Mon 17:00  SSW 37/ 45  20.2 17.2  1009.7    0.0   0.0   0.0   0.0   ----- 
Mon 17:00  SSW 37/ 45  20.2 17.2  1009.7    0.0   0.0  ----   0.0   ----- 
Mon 18:00  SSW 39/ 48  19.8 17.2  1010.3    0.0   0.0   0.0   0.0   ----- 
Mon 18:00  SSW 39/ 48  19.8 17.2  1010.3    0.0   0.0  ----   0.0   ----- 
Mon 19:00  SSW 41/ 50  19.2 16.8  1010.7    0.0   0.0   0.0   0.0   ----- 
Mon 20:00  SSW 39/ 46  19.4 17.2  1011.0    0.0   0.0   0.0   0.0   ----- 
Mon 21:00  SSW 39/ 46  19.3 16.9  1011.4    0.0   0.0   0.0   0.0   ----- 
Mon 22:00  SSW 41/ 48  19.1 16.1  1012.0    0.0   0.0   0.0   0.0   ----- 

GINGIN AERO

Site: 009178
Alt: 73.0m
54km N of PERTH CBD


  Time     Wind        Temp  DP   Baro     Rain since   Rain past  Vis(m), Cloud(base in m), Weather
  local        km/h                         9am  last   hr   10m    
Mon 17:00   SW 28/ 35  23.6 14.6  1009.7    0.0   0.0   0.0   0.0   ----- 
Mon 17:00   SW 28/ 35  23.6 14.6  1009.7    0.0   0.0  ----   0.0   ----- 
Mon 17:30   SW 26/ 35  22.7 15.0  1009.9    0.0   0.0   0.0   0.0   ----- 
Mon 17:30   SW 26/ 35  22.7 15.0  1009.9    0.0   0.0  ----   0.0   ----- 
Mon 18:00   SW 30/ 37  21.7 15.3  1010.2    0.0   0.0   0.0   0.0   ----- 
Mon 18:00   SW 30/ 37  21.7 15.3  1010.2    0.0   0.0  ----   0.0   ----- 
Mon 18:30   SW 24/ 33  20.6 15.6  1010.6    0.0   0.0   0.0   0.0   ----- 
Mon 19:00  SSW 26/ 35  19.6 15.5  1011.0    0.0   0.0   0.0   0.0   ----- 
Mon 19:30  SSW 22/ 30  19.0 15.1  1011.2    0.0   0.0   0.0   0.0   ----- 
Mon 20:00  SSW 30/ 39  18.7 15.0  1011.3    0.0   0.0   0.0   0.0   ----- 
Mon 20:30   SW 28/ 37  18.4 14.9  1011.4    0.0   0.0   0.0   0.0   ----- 
Mon 21:00   SW 26/ 37  18.1 14.8  1011.7    0.0   0.0   0.0   0.0   ----- 
Mon 21:30  SSW 19/ 28  17.8 14.7  1011.9    0.0   0.0   0.0   0.0   ----- 
Mon 22:00   SW 15/ 20  17.5 14.6  1012.1    0.0   0.0   0.0   0.0   ----- 
Mon 22:30   SW 20/ 26  17.4 14.7  1012.1    0.0   0.0   0.0   0.0   ----- 

GINGIN WEST AG STATION

Site: 009GNW
Alt: m
km of


  Time     Wind        Temp  DP   Baro     Rain since   Rain past  Vis(m), Cloud(base in m), Weather
  local        km/h                         9am  last   hr   10m    
Mon 17:00  SSW 26/ 37  21.1 15.4  ------    0.0   0.0   0.0   0.0   ----- 
Mon 17:30  SSW 24/ 37  20.5 15.7  ------    0.0   0.0   0.0   0.0   ----- 
Mon 18:00  SSW 22/ 37  19.9 16.0  ------    0.0   0.0   0.0   0.0   ----- 
Mon 18:00  SSW 22/ 37  19.9 16.0  ------    0.0   0.0  ----   0.0   ----- 
Mon 18:30  SSW 20/ 33  19.4 15.9  ------    0.0   0.0   0.0   0.0   ----- 
Mon 19:00  SSW 20/ 33  18.8 15.6  ------    0.0   0.0   0.0   0.0   ----- 
Mon 19:00  SSW 20/ 33  18.8 15.6  ------    0.0   0.0  ----   0.0   ----- 
Mon 19:30  SSW 19/ 32  18.7 15.6  ------    0.0   0.0   0.0   0.0   ----- 
Mon 19:30  SSW 19/ 32  18.7 15.6  ------    0.0   0.0  ----   0.0   ----- 
Mon 20:00  SSW 20/ 30  18.5 15.4  ------    0.0   0.0   0.0   0.0   ----- 
Mon 20:30  SSW 22/ 35  18.2 15.1  ------    0.0   0.0   0.0   0.0   ----- 
Mon 21:00  SSW 15/ 24  17.7 14.9  ------    0.0   0.0   0.0   0.0   ----- 
Mon 21:30  SSW 15/ 28  17.4 15.0  ------    0.0   0.0   0.0   0.0   ----- 
Mon 21:30  SSW 15/ 28  17.4 15.0  ------    0.0   0.0  ----   0.0   ----- 
Mon 22:00  SSW 17/ 26  17.3 15.0  ------    0.0   0.0   0.0   0.0   ----- 
Mon 22:00  SSW 17/ 26  17.3 15.0  ------    0.0   0.0  ----   0.0   ----- 
Mon 22:30  SSW 19/ 28  17.3 15.1  ------    0.0   0.0   0.0   0.0   ----- 

GOOSEBERRY HILL

Site: 009204
Alt: 220.0m
18km E of PERTH CBD


  Time     Wind        Temp  DP   Baro     Rain since   Rain past  Vis(m), Cloud(base in m), Weather
  local        km/h                         9am  last   hr   10m    
Mon 17:00   SW 22/ 35  24.7 15.1  ------   ----  ----  ----  ----   ----- 
Mon 17:00   SW 22/ 35  24.7 15.1  ------   ----  ----  ----  ----   ----- 
Mon 17:30   SW 24/ 35  23.7 15.2  ------   ----  ----  ----  ----   ----- 
Mon 17:30   SW 24/ 35  23.7 15.2  ------   ----  ----  ----  ----   ----- 
Mon 18:00   SW 20/ 35  23.2 15.3  ------   ----  ----  ----  ----   ----- 
Mon 18:00   SW 20/ 35  23.2 15.3  ------   ----  ----  ----  ----   ----- 
Mon 18:30  WSW 20/ 32  21.6 15.4  ------   ----  ----  ----  ----   ----- 
Mon 19:00   SW 28/ 35  19.9 15.1  ------   ----  ----  ----  ----   ----- 
Mon 19:30   SW 19/ 30  18.9 15.0  ------   ----  ----  ----  ----   ----- 
Mon 20:00   SW 22/ 35  18.3 15.0  ------   ----  ----  ----  ----   ----- 
Mon 20:30   SW 20/ 33  17.6 15.0  ------   ----  ----  ----  ----   ----- 
Mon 21:00   SW 11/ 20  17.4 15.0  ------   ----  ----  ----  ----   ----- 
Mon 21:30   SW 11/ 19  17.2 15.0  ------   ----  ----  ----  ----   ----- 
Mon 22:00   SW 13/ 19  17.0 14.8  ------   ----  ----  ----  ----   ----- 
Mon 22:30   SW 13/ 20  16.8 15.0  ------   ----  ----  ----  ----   ----- 

HARVEY

Site: 009GHV
Alt: 38 m
35km NE of BUNBURY


  Time     Wind        Temp  DP   Baro     Rain since   Rain past  Vis(m), Cloud(base in m), Weather
  local        km/h                         9am  last   hr   10m    
Mon 17:00   SW 15/---  27.2 13.5  ------    0.0   0.0   0.0   0.0   ----- 
Mon 17:30  WSW 15/---  26.5 13.5  ------    0.0   0.0   0.0   0.0   ----- 
Mon 18:00   SW 15/---  25.2 13.7  ------    0.0   0.0   0.0   0.0   ----- 
Mon 18:00   SW 15/---  25.2 13.7  ------    0.0   0.0  ----   0.0   ----- 
Mon 18:30   SW 11/---  24.5 13.7  ------    0.0   0.0   0.0   0.0   ----- 
Mon 19:00  SSW  9/---  23.5 13.2  ------    0.0   0.0   0.0   0.0   ----- 
Mon 19:00  SSW  9/---  23.5 13.2  ------    0.0   0.0  ----   0.0   ----- 
Mon 19:30  SSW 15/---  21.6 11.8  ------    0.0   0.0   0.0   0.0   ----- 
Mon 20:00  SSW 15/---  20.3 11.6  ------    0.0   0.0   0.0   0.0   ----- 
Mon 20:30  SSW 11/---  19.2 11.6  ------    0.0   0.0   0.0   0.0   ----- 
Mon 21:00    S  9/---  18.3 11.5  ------    0.0   0.0   0.0   0.0   ----- 
Mon 21:30  SSW 11/---  17.6 11.4  ------    0.0   0.0   0.0   0.0   ----- 
Mon 21:30  SSW 11/---  17.6 11.4  ------    0.0   0.0  ----   0.0   ----- 
Mon 22:00  SSW  9/---  16.9 11.2  ------    0.0   0.0   0.0   0.0   ----- 
Mon 22:30    S  9/---  16.2 11.2  ------    0.0   0.0   0.0   0.0   ----- 

HILLARYS BOAT HARBOUR NTC AWS

Site: 009265
Alt: 0.0m
18km NW of PERTH CBD


  Time     Wind        Temp  DP   Baro     Rain since   Rain past  Vis(m), Cloud(base in m), Weather
  local        km/h                         9am  last   hr   10m    
Mon 17:00  SSW 19/ 32  20.3----  1009.4   ----  ----  ----  ----   ----- 
Mon 17:00  SSW 19/ 32  20.3----  1009.4   ----  ----  ----  ----   ----- 
Mon 17:30  SSW 17/ 28  20.1----  1009.6   ----  ----  ----  ----   ----- 
Mon 17:30  SSW 17/ 28  20.1----  1009.6   ----  ----  ----  ----   ----- 
Mon 18:00  SSW 19/ 32  19.8----  1010.0   ----  ----  ----  ----   ----- 
Mon 18:00  SSW 19/ 32  19.8----  1010.0   ----  ----  ----  ----   ----- 
Mon 18:30  SSW 20/ 39  19.6----  1010.2   ----  ----  ----  ----   ----- 
Mon 19:00  SSW 20/ 35  19.2----  1010.5   ----  ----  ----  ----   ----- 
Mon 19:30  SSW 20/ 35  19.1----  1010.7   ----  ----  ----  ----   ----- 
Mon 20:00  SSW 20/ 37  19.1----  1010.8   ----  ----  ----  ----   ----- 
Mon 20:30  SSW 20/ 33  19.2----  1010.8   ----  ----  ----  ----   ----- 
Mon 21:00  SSW 17/ 30  19.3----  1011.0   ----  ----  ----  ----   ----- 
Mon 21:30  SSW 20/ 35  19.3----  1011.2   ----  ----  ----  ----   ----- 
Mon 22:00  SSW 19/ 35  19.1----  1011.5   ----  ----  ----  ----   ----- 
Mon 22:30  SSW 20/ 37  18.8----  1011.7   ----  ----  ----  ----   ----- 

HOPETOUN NORTH

Site: 009961
Alt: 26.0m
39km S of RAVENSTHORPE


  Time     Wind        Temp  DP   Baro     Rain since   Rain past  Vis(m), Cloud(base in m), Weather
  local        km/h                         9am  last   hr   10m    
Mon 17:00  SSW 26/ 37  20.5 16.1  1009.5    0.0   0.0   0.0   0.0   ----- 
Mon 17:00  SSW 26/ 37  20.5 16.1  1009.5    0.0   0.0  ----   0.0   ----- 
Mon 17:30    S 26/ 35  19.2 15.7  1009.1    0.0   0.0   0.0   0.0   ----- 
Mon 17:30    S 26/ 35  19.2 15.7  1009.1    0.0   0.0  ----   0.0   ----- 
Mon 18:00    S 19/ 28  19.1 16.3  1009.2    0.0   0.0   0.0   0.0   ----- 
Mon 18:00    S 19/ 28  19.1 16.3  1009.2    0.0   0.0  ----   0.0   ----- 
Mon 18:30  SSW 22/ 30  19.1 16.1  1009.6    0.0   0.0   0.0   0.0   ----- 
Mon 18:51  WSW  9/ 11  18.8 16.2  1011.7    0.0   0.0  ----   0.0   ----- 
Mon 19:00    W 15/ 24  18.9 16.1  1012.4    0.0   0.0   0.0   0.0   ----- 
Mon 19:12  WSW 13/ 22  18.7 15.9  1010.3    0.0   0.0  ----   0.0   ----- 
Mon 19:12  WSW 13/ 22  18.7 15.9  1010.3    0.0   0.0  ----   0.0   ----- 
Mon 19:30  SSE 19/ 24  17.8 17.0  1008.8    0.6   0.6   0.6   0.6   ----- 
Mon 20:00  SSW 24/ 33  17.3 16.5  1009.2    0.8   0.2   0.8   0.0   ----- 
Mon 20:30  SSW 26/ 37  17.8 17.2  1009.5    0.8   0.0   0.2   0.0   ----- 
Mon 21:00  SSW 28/ 37  17.5 16.5  1009.8    0.8   0.0   0.0   0.0   ----- 
Mon 21:30  SSW 24/ 33  17.4 16.6  1010.3    0.8   0.0   0.0   0.0   ----- 
Mon 22:00  SSW 20/ 30  17.4 16.1  1011.0    0.8   0.0   0.0   0.0   ----- 
Mon 22:30  SSW 17/ 24  17.5 16.4  1011.2    0.8   0.0   0.0   0.0   ----- 

INNER DOLPHIN PYLON

Site: 009091
Alt: 0.0m
5km SSW of PERTH CBD


  Time     Wind        Temp  DP   Baro     Rain since   Rain past  Vis(m), Cloud(base in m), Weather
  local        km/h                         9am  last   hr   10m    
Mon 17:00   SW 30/ 37 --------  ------   ----  ----  ----  ----   ----- 
Mon 17:00   SW 30/ 37 --------  ------   ----  ----  ----  ----   ----- 
Mon 17:30   SW 30/ 37 --------  ------   ----  ----  ----  ----   ----- 
Mon 17:30   SW 30/ 37 --------  ------   ----  ----  ----  ----   ----- 
Mon 18:00   SW 35/ 43 --------  ------   ----  ----  ----  ----   ----- 
Mon 18:00   SW 35/ 43 --------  ------   ----  ----  ----  ----   ----- 
Mon 18:30  SSW 35/ 46 --------  ------   ----  ----  ----  ----   ----- 
Mon 19:00  SSW 32/ 46 --------  ------   ----  ----  ----  ----   ----- 
Mon 19:30  SSW 30/ 43 --------  ------   ----  ----  ----  ----   ----- 
Mon 20:00  SSW 30/ 39 --------  ------   ----  ----  ----  ----   ----- 
Mon 20:30  SSW 28/ 37 --------  ------   ----  ----  ----  ----   ----- 
Mon 21:00  SSW 24/ 33 --------  ------   ----  ----  ----  ----   ----- 
Mon 21:30  SSW 26/ 33 --------  ------   ----  ----  ----  ----   ----- 
Mon 22:00  SSW 24/ 30 --------  ------   ----  ----  ----  ----   ----- 
Mon 22:30  SSW 26/ 37 --------  ------   ----  ----  ----  ----   ----- 

JANDAKOT AERO

Site: 009172
Alt: 30.0m
17km S of PERTH CBD


  Time     Wind        Temp  DP   Baro     Rain since   Rain past  Vis(m), Cloud(base in m), Weather
  local        km/h                         9am  last   hr   10m    
Mon 17:00   SW 28/ 37  23.8 16.3  1009.2    0.0   0.0   0.0   0.0   10000 
Mon 17:00   SW 28/ 37  23.8 16.3  1009.2    0.0   0.0  ----   0.0   10000 
Mon 17:30   SW 26/ 35  23.0 17.0  1009.4    0.0   0.0   0.0   0.0   10000 
Mon 17:30   SW 26/ 35  23.0 17.0  1009.4    0.0   0.0  ----   0.0   10000 
Mon 18:00   SW 30/ 41  22.1 16.8  1009.7    0.0   0.0   0.0   0.0   10000 
Mon 18:00   SW 30/ 41  22.1 16.8  1009.7    0.0   0.0  ----   0.0   10000 
Mon 18:30   SW 30/ 43  21.0 17.0  1010.0    0.0   0.0   0.0   0.0   10000 
Mon 19:00   SW 28/ 35  19.8 17.0  1010.4    0.0   0.0   0.0   0.0   10000 
Mon 19:30   SW 26/ 35  19.2 17.2  1010.5    0.0   0.0   0.0   0.0   10000 
Mon 20:00  SSW 28/ 41  19.0 17.0  1010.8    0.0   0.0   0.0   0.0   10000 
Mon 20:30  SSW 22/ 30  19.0 17.1  1010.9    0.0   0.0   0.0   0.0   10000 
Mon 21:00  SSW 19/ 24  18.9 17.0  1011.1    0.0   0.0   0.0   0.0   10000 
Mon 21:30  SSW 19/ 28  19.2 16.2  1011.3    0.0   0.0   0.0   0.0   10000 
Mon 22:00  SSW 20/ 28  18.9 16.3  1011.5    0.0   0.0   0.0   0.0   10000 
Mon 22:30  SSW 20/ 32  18.5 16.1  1011.7    0.0   0.0   0.0   0.0   10000 

JURIEN BAY AG STATION

Site: 009URB
Alt: 80m
17km E of JURIEN BAY


  Time     Wind        Temp  DP   Baro     Rain since   Rain past  Vis(m), Cloud(base in m), Weather
  local        km/h                         9am  last   hr   10m    
Mon 17:00    S 15/ 33  22.6 14.7  ------    0.0   0.0   0.0   0.0   ----- 
Mon 17:00    S 15/ 33  22.6 14.7  ------    0.0   0.0  ----   0.0   ----- 
Mon 17:00    S 15/ 33  22.6 14.7  ------    0.0   0.0  ----   0.0   ----- 
Mon 17:30  SSW 15/ 26  21.8 15.0  ------    0.0   0.0   0.0   0.0   ----- 
Mon 17:30  SSW 15/ 26  21.8 15.0  ------    0.0   0.0  ----   0.0   ----- 
Mon 18:00    S 13/ 32  20.8 15.1  ------    0.0   0.0   0.0   0.0   ----- 
Mon 18:00    S 13/ 32  20.8 15.1  ------    0.0   0.0  ----   0.0   ----- 
Mon 18:00    S 13/ 32  20.8 15.1  ------    0.0   0.0  ----   0.0   ----- 
Mon 18:00    S 13/ 32  20.8 15.1  ------    0.0   0.0  ----   0.0   ----- 
Mon 18:30    S 13/ 30  19.7 14.9  ------    0.0   0.0   0.0   0.0   ----- 
Mon 18:30    S 13/ 30  19.7 14.9  ------    0.0   0.0  ----   0.0   ----- 
Mon 19:00    S 15/ 26  19.4 14.8  ------    0.0   0.0   0.0   0.0   ----- 
Mon 19:30    S 13/ 26  19.1 14.7  ------    0.0   0.0   0.0   0.0   ----- 
Mon 19:30    S 13/ 26  19.1 14.7  ------    0.0   0.0  ----   0.0   ----- 
Mon 20:00    S 11/ 26  19.0 14.5  ------    0.0   0.0   0.0   0.0   ----- 
Mon 20:30    S  9/ 24  18.9 14.5  ------    0.0   0.0   0.0   0.0   ----- 
Mon 20:30    S  9/ 24  18.9 14.5  ------    0.0   0.0  ----   0.0   ----- 
Mon 21:00    S 13/ 26  18.7 14.5  ------    0.0   0.0   0.0   0.0   ----- 
Mon 21:00    S 13/ 26  18.7 14.5  ------    0.0   0.0  ----   0.0   ----- 
Mon 21:30    S 13/ 26  18.7 14.5  ------    0.0   0.0   0.0   0.0   ----- 
Mon 21:30    S 13/ 26  18.7 14.5  ------    0.0   0.0  ----   0.0   ----- 
Mon 22:00    S 13/ 32  18.6 14.5  ------    0.0   0.0   0.0   0.0   ----- 
Mon 22:00    S 13/ 32  18.6 14.5  ------    0.0   0.0  ----   0.0   ----- 
Mon 22:30    S 11/ 24  18.4 14.4  ------    0.0   0.0   0.0   0.0   ----- 

LANCELIN (DEFENCE)

Site: 009280
Alt: 7.0m
km of


  Time     Wind        Temp  DP   Baro     Rain since   Rain past  Vis(m), Cloud(base in m), Weather
  local        km/h                         9am  last   hr   10m    
Mon 17:00    S 32/ 41  20.5 20.5  1011.0    0.0   0.0   0.0   0.0   ----- 
Mon 17:00    S 32/ 41  20.5 20.5  1011.0    0.0   0.0  ----   0.0   ----- 
Mon 17:30    S 26/ 39  20.0 20.0  1011.1    0.0   0.0   0.0   0.0   ----- 
Mon 17:30    S 26/ 39  20.0 20.0  1011.1    0.0   0.0  ----   0.0   ----- 
Mon 18:00    S 26/ 39  20.0 20.0  1011.5    0.0   0.0   0.0   0.0   ----- 
Mon 18:00    S 26/ 39  20.0 20.0  1011.5    0.0   0.0  ----   0.0   ----- 
Mon 18:30    S 28/ 39  19.6 19.6  1011.9    0.0   0.0   0.0   0.0   ----- 
Mon 19:00    S 30/ 37  19.4 19.4  1012.1    0.0   0.0   0.0   0.0   ----- 
Mon 19:30    S 28/ 39  19.2 19.2  1012.3    0.0   0.0   0.0   0.0   ----- 
Mon 20:00    S 28/ 37  19.2 19.2  1012.4    0.0   0.0   0.0   0.0   ----- 
Mon 20:30    S 26/ 35  19.1 19.1  1012.6    0.0   0.0   0.0   0.0   ----- 
Mon 21:00    S 26/ 33  18.9 18.9  1012.9    0.0   0.0   0.0   0.0   ----- 
Mon 21:30    S 22/ 33  19.1 19.1  1013.0    0.0   0.0   0.0   0.0   ----- 
Mon 22:00    S 24/ 33  18.8 18.8  1013.2    0.0   0.0   0.0   0.0   ----- 
Mon 22:30    S 22/ 33  18.9 18.9  1013.4    0.0   0.0   0.0   0.0   ----- 

LANCELIN EAST AG STATION

Site: 009GLE
Alt: m
km of


  Time     Wind        Temp  DP   Baro     Rain since   Rain past  Vis(m), Cloud(base in m), Weather
  local        km/h                         9am  last   hr   10m    
Mon 17:00  SSW 30/ 45  21.4 15.3  ------    0.0   0.0   0.0   0.0   ----- 
Mon 17:30  SSW 33/ 39  20.2 15.3  ------    0.0   0.0   0.0   0.0   ----- 
Mon 18:00  SSW 32/ 41  19.7 15.5  ------    0.0   0.0   0.0   0.0   ----- 
Mon 18:00  SSW 32/ 41  19.7 15.5  ------    0.0   0.0  ----   0.0   ----- 
Mon 18:30  SSW 33/ 41  19.2 15.1  ------    0.0   0.0   0.0   0.0   ----- 
Mon 19:00  SSW 28/ 37  18.9 15.2  ------    0.0   0.0   0.0   0.0   ----- 
Mon 19:00  SSW 28/ 37  18.9 15.2  ------    0.0   0.0  ----   0.0   ----- 
Mon 19:30  SSW 30/ 41  18.7 15.2  ------    0.0   0.0   0.0   0.0   ----- 
Mon 20:00  SSW 30/ 41  18.6 15.3  ------    0.0   0.0   0.0   0.0   ----- 
Mon 20:30  SSW 26/ 39  18.7 15.3  ------    0.0   0.0   0.0   0.0   ----- 
Mon 21:00  SSW 28/ 37  18.3 15.2  ------    0.0   0.0   0.0   0.0   ----- 
Mon 21:30  SSW 30/ 41  18.1 14.7  ------    0.0   0.0   0.0   0.0   ----- 
Mon 21:30  SSW 30/ 41  18.1 14.7  ------    0.0   0.0  ----   0.0   ----- 
Mon 22:00  SSW 19/ 28  17.6 14.7  ------    0.0   0.0   0.0   0.0   ----- 
Mon 22:00  SSW 19/ 28  17.6 14.7  ------    0.0   0.0  ----   0.0   ----- 
Mon 22:30  SSW 17/ 20  17.6 14.9  ------    0.0   0.0   0.0   0.0   ----- 

MANDURAH

Site: 009977
Alt: 3.0m
1km NW of MANDURAH


  Time     Wind        Temp  DP   Baro     Rain since   Rain past  Vis(m), Cloud(base in m), Weather
  local        km/h                         9am  last   hr   10m    
Mon 17:00   SW 22/ 37  22.5 17.2  1009.1    0.0   0.0   0.0   0.0   ----- 
Mon 17:00   SW 22/ 37  22.5 17.2  1009.1    0.0   0.0  ----   0.0   ----- 
Mon 17:16   SW 28/ 48  21.6 17.4  1009.1    0.0   0.0  ----   0.0   ----- 
Mon 17:30   SW 26/ 39  21.5 17.1  1009.2    0.0   0.0   0.0   0.0   ----- 
Mon 17:30   SW 26/ 39  21.5 17.1  1009.2    0.0   0.0  ----   0.0   ----- 
Mon 18:00   SW 24/ 39  21.3 16.5  1009.7    0.0   0.0   0.0   0.0   ----- 
Mon 18:00   SW 24/ 39  21.3 16.5  1009.7    0.0   0.0  ----   0.0   ----- 
Mon 18:30  SSW 22/ 35  20.5 16.5  1009.9    0.0   0.0   0.0   0.0   ----- 
Mon 19:00  SSW 19/ 33  20.1 16.3  1010.2    0.0   0.0   0.0   0.0   ----- 
Mon 19:30  SSW 19/ 35  20.0 16.4  1010.4    0.0   0.0   0.0   0.0   ----- 
Mon 20:00  SSW 22/ 33  20.4 15.8  1010.5    0.0   0.0   0.0   0.0   ----- 
Mon 20:30  SSW 20/ 32  20.3 15.7  1010.7    0.0   0.0   0.0   0.0   ----- 
Mon 21:00  SSW 20/ 33  19.8 15.9  1011.0    0.0   0.0   0.0   0.0   ----- 
Mon 21:30  SSW 19/ 30  19.4 15.5  1011.3    0.0   0.0   0.0   0.0   ----- 
Mon 22:00  SSW 24/ 37  19.0 15.7  1011.5    0.0   0.0   0.0   0.0   ----- 
Mon 22:30  SSW 24/ 35  18.6 15.5  1011.6    0.0   0.0   0.0   0.0   ----- 

MANJIMUP

Site: 009573
Alt: 286.7m
1km S of MANJIMUP


  Time     Wind        Temp  DP   Baro     Rain since   Rain past  Vis(m), Cloud(base in m), Weather
  local        km/h                         9am  last   hr   10m    
Mon 17:00  SSW 28/ 39  22.1 13.2  1011.5    0.0   0.0   0.0   0.0   ----- 
Mon 17:00  SSW 28/ 39  22.1 13.2  1011.5    0.0   0.0  ----   0.0   ----- 
Mon 18:00    S 26/ 37  18.1 11.9  1012.3    0.0   0.0   0.0   0.0   ----- 
Mon 18:00    S 26/ 37  18.1 11.9  1012.3    0.0   0.0  ----   0.0   ----- 
Mon 19:00    S 17/ 28  16.5 11.9  1012.5    0.0   0.0   0.0   0.0   ----- 
Mon 20:00    S 20/ 30  15.6 11.2  1012.8    0.0   0.0   0.0   0.0   ----- 
Mon 21:00    S 17/ 28  15.1 10.3  1013.3    0.0   0.0   0.0   0.0   ----- 
Mon 22:00    S 11/ 17  13.9 10.7  1013.1    0.0   0.0   0.0   0.0   ----- 

MANJIMUP AG STATION

Site: 009GMA
Alt: m
km of


  Time     Wind        Temp  DP   Baro     Rain since   Rain past  Vis(m), Cloud(base in m), Weather
  local        km/h                         9am  last   hr   10m    
Mon 17:00  SSW 11/ 22  21.2 13.1  ------    0.0   0.0   0.0   0.0   ----- 
Mon 17:30    S 13/ 28  19.2 12.7  ------    0.0   0.0   0.0   0.0   ----- 
Mon 18:00    S 11/ 22  18.2 12.6  ------    0.0   0.0   0.0   0.0   ----- 
Mon 18:00    S 11/ 22  18.2 12.6  ------    0.0   0.0  ----   0.0   ----- 
Mon 18:30    S  9/ 19  17.3 12.1  ------    0.0   0.0   0.0   0.0   ----- 
Mon 19:00  SSW  9/ 17  16.3 11.6  ------    0.0   0.0   0.0   0.0   ----- 
Mon 19:00  SSW  9/ 17  16.3 11.6  ------    0.0   0.0  ----   0.0   ----- 
Mon 19:30  SSW  7/ 15  15.9 11.9  ------    0.0   0.0   0.0   0.0   ----- 
Mon 20:00    S  9/ 20  15.6 11.5  ------    0.0   0.0   0.0   0.0   ----- 
Mon 20:30    S  9/ 20  15.3 11.3  ------    0.0   0.0   0.0   0.0   ----- 
Mon 21:00  SSE  9/ 19  15.0 10.8  ------    0.0   0.0   0.0   0.0   ----- 
Mon 21:30    S  6/  9  14.5 11.2  ------    0.0   0.0   0.0   0.0   ----- 
Mon 21:30    S  6/  9  14.5 11.2  ------    0.0   0.0  ----   0.0   ----- 
Mon 22:00    S  4/  6  13.5 11.3  ------    0.0   0.0   0.0   0.0   ----- 
Mon 22:30    S  2/  9  13.4 11.7  ------    0.0   0.0   0.0   0.0   ----- 

MANYPEAKS AG STATION

Site: 009GMP
Alt: 124.0m
33km NE of ALBANY


  Time     Wind        Temp  DP   Baro     Rain since   Rain past  Vis(m), Cloud(base in m), Weather
  local        km/h                         9am  last   hr   10m    
Mon 17:00    S 13/ 22  20.1 13.0  ------    0.0   0.0   0.0   0.0   ----- 
Mon 17:00    S 13/ 22  20.1 13.0  ------    0.0   0.0  ----   0.0   ----- 
Mon 17:00    S 13/ 22  20.1 13.0  ------    0.0   0.0  ----   0.0   ----- 
Mon 17:30    S 17/ 24  18.4 13.0  ------    0.0   0.0   0.0   0.0   ----- 
Mon 17:30    S 17/ 24  18.4 13.0  ------    0.0   0.0  ----   0.0   ----- 
Mon 18:00  SSE 17/ 26  17.8 13.1  ------    0.0   0.0   0.0   0.0   ----- 
Mon 18:00  SSE 17/ 26  17.8 13.1  ------    0.0   0.0  ----   0.0   ----- 
Mon 18:00  SSE 17/ 26  17.8 13.1  ------    0.0   0.0  ----   0.0   ----- 
Mon 18:00  SSE 17/ 26  17.8 13.1  ------    0.0   0.0  ----   0.0   ----- 
Mon 18:30    S 15/ 22  17.1 12.6  ------    0.0   0.0   0.0   0.0   ----- 
Mon 18:30    S 15/ 22  17.1 12.6  ------    0.0   0.0  ----   0.0   ----- 
Mon 19:00    S 13/ 22  16.8 12.4  ------    0.0   0.0   0.0   0.0   ----- 
Mon 19:30    S 11/ 17  15.9 11.9  ------    0.0   0.0   0.0   0.0   ----- 
Mon 19:30    S 11/ 17  15.9 11.9  ------    0.0   0.0  ----   0.0   ----- 
Mon 20:00    S  9/ 17  15.4 12.3  ------    0.0   0.0   0.0   0.0   ----- 
Mon 20:30    S  6/ 11  15.4 12.4  ------    0.0   0.0   0.0   0.0   ----- 
Mon 20:30    S  6/ 11  15.4 12.4  ------    0.0   0.0  ----   0.0   ----- 
Mon 21:00    S  7/ 13  15.2 11.6  ------    0.0   0.0   0.0   0.0   ----- 
Mon 21:30    S  7/ 15  14.3 11.4  ------    0.0   0.0   0.0   0.0   ----- 
Mon 21:30    S  7/ 15  14.3 11.4  ------    0.0   0.0  ----   0.0   ----- 
Mon 22:00    C  0/  6  13.3 10.8  ------    0.0   0.0   0.0   0.0   ----- 
Mon 22:00    C  0/  6  13.3 10.8  ------    0.0   0.0  ----   0.0   ----- 
Mon 22:30    C  0/  4  12.9 10.7  ------    0.0   0.0   0.0   0.0   ----- 

MERREDIN AG STATION

Site: 009GME
Alt: m
km of


  Time     Wind        Temp  DP   Baro     Rain since   Rain past  Vis(m), Cloud(base in m), Weather
  local        km/h                         9am  last   hr   10m    
Mon 17:00  WSW  9/ 24  36.1 10.0  ------    0.0   0.0   0.0   0.0   ----- 
Mon 17:00  WSW  9/ 24  36.1 10.0  ------    0.0   0.0  ----   0.0   ----- 
Mon 17:00  WSW  9/ 24  36.1 10.0  ------    0.0   0.0  ----   0.0   ----- 
Mon 17:30   SW 15/ 26  36.0  9.6  ------    0.0   0.0   0.0   0.0   ----- 
Mon 17:30   SW 15/ 26  36.0  9.6  ------    0.0   0.0  ----   0.0   ----- 
Mon 18:00  SSW 20/ 32  34.6  9.0  ------    0.0   0.0   0.0   0.0   ----- 
Mon 18:00  SSW 20/ 32  34.6  9.0  ------    0.0   0.0  ----   0.0   ----- 
Mon 18:00  SSW 20/ 32  34.6  9.0  ------    0.0   0.0  ----   0.0   ----- 
Mon 18:00  SSW 20/ 32  34.6  9.0  ------    0.0   0.0  ----   0.0   ----- 
Mon 18:30  SSW 17/ 24  34.2  8.7  ------    0.0   0.0   0.0   0.0   ----- 
Mon 18:30  SSW 17/ 24  34.2  8.7  ------    0.0   0.0  ----   0.0   ----- 
Mon 19:00   SW 15/ 24  33.1  8.5  ------    0.0   0.0   0.0   0.0   ----- 
Mon 19:30   SW 11/ 19  32.2  8.7  ------    0.0   0.0   0.0   0.0   ----- 
Mon 20:00  SSW 11/ 22  31.2  9.1  ------    0.0   0.0   0.0   0.0   ----- 
Mon 20:20    S 30/ 50  28.2 12.9  ------    0.0   0.0  ----   0.0   ----- 
Mon 20:30  SSE 24/ 37  27.8 13.6  ------    0.0   0.0   0.0   0.0   ----- 
Mon 20:30  SSE 24/ 37  27.8 13.6  ------    0.0   0.0  ----   0.0   ----- 
Mon 21:00   SE 24/ 43  26.1 11.9  ------    0.0   0.0   0.0   0.0   ----- 
Mon 21:30   SE 24/ 35  25.4 12.7  ------    0.0   0.0   0.0   0.0   ----- 
Mon 22:00  ESE 22/ 37  24.8 13.1  ------    0.0   0.0   0.0   0.0   ----- 
Mon 22:30  ESE 22/ 33  24.0 13.6  ------    0.0   0.0   0.0   0.0   ----- 

MILLENDON (SWAN VALLEY)

Site: 009281
Alt: 16.0m
km of


  Time     Wind        Temp  DP   Baro     Rain since   Rain past  Vis(m), Cloud(base in m), Weather
  local        km/h                         9am  last   hr   10m    
Mon 17:00   SW 17/ 26  25.2 15.2  ------    0.0   0.0   0.0   0.0   ----- 
Mon 17:00   SW 17/ 26  25.2 15.2  ------    0.0   0.0  ----   0.0   ----- 
Mon 17:30   SW 17/ 26  24.4 15.6  ------    0.0   0.0   0.0   0.0   ----- 
Mon 17:30   SW 17/ 26  24.4 15.6  ------    0.0   0.0  ----   0.0   ----- 
Mon 18:00   SW 15/ 26  23.9 15.7  ------    0.0   0.0   0.0   0.0   ----- 
Mon 18:00   SW 15/ 26  23.9 15.7  ------    0.0   0.0  ----   0.0   ----- 
Mon 18:30   SW 17/ 28  22.9 16.0  ------    0.0   0.0   0.0   0.0   ----- 
Mon 19:00   SW 17/ 28  20.9 15.9  ------    0.0   0.0   0.0   0.0   ----- 
Mon 19:30   SW 11/ 17  20.1 15.7  ------    0.0   0.0   0.0   0.0   ----- 
Mon 20:00   SW 13/ 20  19.7 15.8  ------    0.0   0.0   0.0   0.0   ----- 
Mon 20:30  SSW 11/ 19  19.3 15.6  ------    0.0   0.0   0.0   0.0   ----- 
Mon 21:00  SSW  7/ 13  19.0 15.3  ------    0.0   0.0   0.0   0.0   ----- 
Mon 21:30  SSW  6/ 11  18.8 15.1  ------    0.0   0.0   0.0   0.0   ----- 
Mon 22:00  SSW  6/  7  18.3 15.0  ------    0.0   0.0   0.0   0.0   ----- 
Mon 22:30    C  0/  4  17.4 14.5  ------    0.0   0.0   0.0   0.0   ----- 

MOUNT BARKER AG STATION

Site: 009GMB
Alt: m
km of


  Time     Wind        Temp  DP   Baro     Rain since   Rain past  Vis(m), Cloud(base in m), Weather
  local        km/h                         9am  last   hr   10m    
Mon 17:00    S 17/ 26  21.1 12.1  ------    0.0   0.0   0.0   0.0   ----- 
Mon 17:30    S 19/ 28  19.8 12.1  ------    0.0   0.0   0.0   0.0   ----- 
Mon 18:00    S 19/ 28  18.4 11.6  ------    0.0   0.0   0.0   0.0   ----- 
Mon 18:00    S 19/ 28  18.4 11.6  ------    0.0   0.0  ----   0.0   ----- 
Mon 18:30  SSW 17/ 26  16.5 11.0  ------    0.0   0.0   0.0   0.0   ----- 
Mon 19:00    S 15/ 22  16.0 11.3  ------    0.0   0.0   0.0   0.0   ----- 
Mon 19:00    S 15/ 22  16.0 11.3  ------    0.0   0.0  ----   0.0   ----- 
Mon 19:30    S 13/ 19  15.5 11.0  ------    0.0   0.0   0.0   0.0   ----- 
Mon 20:00    S 13/ 20  14.9 10.8  ------    0.0   0.0   0.0   0.0   ----- 
Mon 20:30    S  9/ 13  14.3 10.5  ------    0.0   0.0   0.0   0.0   ----- 
Mon 21:00    S 13/ 20  14.7 10.7  ------    0.0   0.0   0.0   0.0   ----- 
Mon 21:30    S  9/ 15  14.3 10.6  ------    0.0   0.0   0.0   0.0   ----- 
Mon 21:30    S  9/ 15  14.3 10.6  ------    0.0   0.0  ----   0.0   ----- 
Mon 22:00  SSE  6/  9  13.7 10.5  ------    0.0   0.0   0.0   0.0   ----- 
Mon 22:30  ESE  2/  4  12.7 10.0  ------    0.0   0.0   0.0   0.0   ----- 

MOUNT HOWICK AG STATION

Site: 009GHO
Alt: 120 m
78km ENE of ESPERANCE


  Time     Wind        Temp  DP   Baro     Rain since   Rain past  Vis(m), Cloud(base in m), Weather
  local        km/h                         9am  last   hr   10m    
Mon 17:00    E 20/ 35  24.2 15.2  ------    3.0   0.0   3.0   0.0   ----- 
Mon 17:00    E 20/ 35  24.2 15.2  ------    3.0   0.0  ----   0.0   ----- 
Mon 17:00    E 20/ 35  24.2 15.2  ------    3.0   0.0  ----   0.0   ----- 
Mon 17:30    E 15/ 28  22.5 15.2  ------    3.0   0.0  ----   0.0   ----- 
Mon 17:30    E 15/ 28  22.5 15.2  ------    3.0   0.0  ----   0.0   ----- 
Mon 17:51  WNW 39/ 54  23.0 16.7  ------    3.0   0.0  ----   0.0   ----- 
Mon 17:51  WNW 39/ 54  23.0 16.7  ------    3.0   0.0  ----   0.0   ----- 
Mon 18:05    W 32/ 43  21.0 16.5  ------    3.0   0.0  ----   0.0   ----- 
Mon 18:05    W 32/ 43  21.0 16.5  ------    3.0   0.0  ----   0.0   ----- 
Mon 18:30  SSW 19/ 26  19.6 17.0  ------    4.2   1.2   1.2   0.8   ----- 
Mon 18:30  SSW 19/ 26  19.6 17.0  ------    4.2   0.0  ----   0.8   ----- 
Mon 19:00   SE 19/ 22  19.2 17.1  ------    5.6   1.4  ----   0.0   ----- 
Mon 19:30    E 15/ 26  19.4 16.8  ------    5.8   0.2   1.6   0.0   ----- 
Mon 19:30    E 15/ 26  19.4 16.8  ------    5.8   0.0  ----   0.0   ----- 
Mon 20:00    E 11/ 22  19.9 15.7  ------    5.8   0.0   0.2   0.0   ----- 
Mon 20:30  ENE 22/ 32  20.5 14.0  ------    5.8   0.0   0.0   0.0   ----- 
Mon 20:30  ENE 22/ 32  20.5 14.0  ------    5.8   0.0  ----   0.0   ----- 
Mon 21:00   NE 17/ 24  20.1 15.1  ------    5.8   0.0   0.0   0.0   ----- 
Mon 21:30  NNE 20/ 28  19.6 15.0  ------    5.8   0.0   0.0   0.0   ----- 
Mon 22:00   NE 19/ 28  19.6 14.8  ------    5.8   0.0   0.0   0.0   ----- 
Mon 22:30  NNE 28/ 39  18.7 14.7  ------    5.8   0.0   0.0   0.0   ----- 

MYALUP AG STATION

Site: 009GMY
Alt: m
km of


  Time     Wind        Temp  DP   Baro     Rain since   Rain past  Vis(m), Cloud(base in m), Weather
  local        km/h                         9am  last   hr   10m    
Mon 17:00  WSW 24/ 37  23.8 15.6  ------    0.0   0.0   0.0   0.0   ----- 
Mon 17:00  WSW 24/ 37  23.8 15.6  ------    0.0   0.0  ----   0.0   ----- 
Mon 17:00  WSW 24/ 37  23.8 15.6  ------    0.0   0.0  ----   0.0   ----- 
Mon 17:30   SW 24/ 46  23.4 15.5  ------    0.0   0.0   0.0   0.0   ----- 
Mon 17:30   SW 24/ 46  23.4 15.5  ------    0.0   0.0  ----   0.0   ----- 
Mon 18:00   SW 22/ 41  22.8 15.5  ------    0.0   0.0   0.0   0.0   ----- 
Mon 18:00   SW 22/ 41  22.8 15.5  ------    0.0   0.0  ----   0.0   ----- 
Mon 18:00   SW 22/ 41  22.8 15.5  ------    0.0   0.0  ----   0.0   ----- 
Mon 18:00   SW 22/ 41  22.8 15.5  ------    0.0   0.0  ----   0.0   ----- 
Mon 18:30   SW 24/ 45  21.9 15.2  ------    0.0   0.0   0.0   0.0   ----- 
Mon 18:30   SW 24/ 45  21.9 15.2  ------    0.0   0.0  ----   0.0   ----- 
Mon 19:00  SSW 22/ 39  21.0 14.3  ------    0.0   0.0   0.0   0.0   ----- 
Mon 19:30  SSW 13/ 24  20.4 14.4  ------    0.0   0.0   0.0   0.0   ----- 
Mon 19:30  SSW 13/ 24  20.4 14.4  ------    0.0   0.0  ----   0.0   ----- 
Mon 20:00  SSW 15/ 26  19.9 13.0  ------    0.0   0.0   0.0   0.0   ----- 
Mon 20:30  SSW 13/ 22  19.2 13.1  ------    0.0   0.0   0.0   0.0   ----- 
Mon 20:30  SSW 13/ 22  19.2 13.1  ------    0.0   0.0  ----   0.0   ----- 
Mon 21:00    S 11/ 20  18.3 12.7  ------    0.0   0.0   0.0   0.0   ----- 
Mon 21:30  SSW 13/ 20  17.7 12.5  ------    0.0   0.0   0.0   0.0   ----- 
Mon 21:30  SSW 13/ 20  17.7 12.5  ------    0.0   0.0  ----   0.0   ----- 
Mon 22:00  SSW 13/ 22  17.0 12.3  ------    0.0   0.0   0.0   0.0   ----- 
Mon 22:00  SSW 13/ 22  17.0 12.3  ------    0.0   0.0  ----   0.0   ----- 
Mon 22:30  SSW 13/ 26  16.5 12.3  ------    0.0   0.0   0.0   0.0   ----- 

NEW NORCIA AG STATION

Site: 009NCA
Alt: 260m
12km S of NEW NORCIA


  Time     Wind        Temp  DP   Baro     Rain since   Rain past  Vis(m), Cloud(base in m), Weather
  local        km/h                         9am  last   hr   10m    
Mon 17:00   SW 20/ 37  25.8 13.6  ------    0.0   0.0   0.0   0.0   ----- 
Mon 17:30   SW 19/ 33  24.7 13.8  ------    0.0   0.0   0.0   0.0   ----- 

Mon 18:00   SW 20/ 35  23.8 13.6  ------    0.0   0.0   0.0   0.0   ----- 
Mon 18:00   SW 20/ 35  23.8 13.6  ------    0.0   0.0  ----   0.0   ----- 
Mon 18:30   SW 15/ 26  22.7 14.3  ------    0.0   0.0   0.0   0.0   ----- 
Mon 19:00   SW 20/ 35  20.7 14.2  ------    0.0   0.0   0.0   0.0   ----- 
Mon 19:00   SW 20/ 35  20.7 14.2  ------    0.0   0.0  ----   0.0   ----- 
Mon 19:30   SW 19/ 35  19.1 14.8  ------    0.0   0.0   0.0   0.0   ----- 
Mon 20:00   SW 17/ 26  17.8 15.1  ------    0.0   0.0   0.0   0.0   ----- 
Mon 20:30  SSW 19/ 30  17.5 15.2  ------    0.0   0.0   0.0   0.0   ----- 
Mon 21:00   SW 20/ 35  16.9 14.9  ------    0.0   0.0   0.0   0.0   ----- 
Mon 21:30   SW 24/ 37  16.8 14.8  ------    0.0   0.0   0.0   0.0   ----- 
Mon 21:30   SW 24/ 37  16.8 14.8  ------    0.0   0.0  ----   0.0   ----- 
Mon 22:00   SW 20/ 30  16.5 14.6  ------    0.0   0.0   0.0   0.0   ----- 
Mon 22:30   SW 19/ 28  16.3 14.7  ------    0.0   0.0   0.0   0.0   ----- 

NORTH WALPOLE

Site: 009998
Alt: 73.0m
95km SE of MANJIMUP


  Time     Wind        Temp  DP   Baro     Rain since   Rain past  Vis(m), Cloud(base in m), Weather
  local        km/h                         9am  last   hr   10m    
Mon 17:00  SSW 11/ 26  17.7 13.0  1012.1    0.0   0.0   0.0   0.0   ----- 
Mon 17:00  SSW 11/ 26  17.7 13.0  1012.1    0.0   0.0  ----   0.0   ----- 
Mon 17:30    S 15/ 26  17.1 12.8  1012.1    0.0   0.0   0.0   0.0   ----- 
Mon 17:30    S 15/ 26  17.1 12.8  1012.1    0.0   0.0  ----   0.0   ----- 
Mon 18:00    S 13/ 19  17.1 13.0  1012.3    0.0   0.0   0.0   0.0   ----- 
Mon 18:00    S 13/ 19  17.1 13.0  1012.3    0.0   0.0  ----   0.0   ----- 
Mon 18:30    S  9/ 17  16.7 13.4  1012.3    0.0   0.0   0.0   0.0   ----- 
Mon 19:00    S 11/ 15  16.2 13.1  1012.4    0.0   0.0   0.0   0.0   ----- 
Mon 19:30    S  9/ 13  16.0 13.1  1012.5    0.0   0.0   0.0   0.0   ----- 
Mon 20:00    S 13/ 17  15.8 12.7  1012.7    0.0   0.0   0.0   0.0   ----- 
Mon 20:30  SSW  6/  9  15.5 12.6  1012.8    0.0   0.0   0.0   0.0   ----- 
Mon 21:00    C  0/  6  15.1 12.2  1012.6    0.0   0.0   0.0   0.0   ----- 
Mon 21:30    C  0/  0  14.1 12.3  1012.5    0.0   0.0   0.0   0.0   ----- 
Mon 22:00    C  0/  0  13.9 12.6  1012.7    0.0   0.0   0.0   0.0   ----- 
Mon 22:30    S  6/  6  14.1 13.0  1012.4    0.0   0.0   0.0   0.0   ----- 

OCEAN REEF

Site: 009214
Alt: 10.0m
25km NNW of PERTH CBD


  Time     Wind        Temp  DP   Baro     Rain since   Rain past  Vis(m), Cloud(base in m), Weather
  local        km/h                         9am  last   hr   10m    
Mon 17:00  SSW 33/ 39 --------  ------   ----  ----  ----  ----   ----- 
Mon 17:00  SSW 33/ 39 --------  ------   ----  ----  ----  ----   ----- 
Mon 17:30  SSW 35/ 41 --------  ------   ----  ----  ----  ----   ----- 
Mon 17:30  SSW 35/ 41 --------  ------   ----  ----  ----  ----   ----- 
Mon 18:00  SSW 35/ 39 --------  ------   ----  ----  ----  ----   ----- 
Mon 18:00  SSW 35/ 39 --------  ------   ----  ----  ----  ----   ----- 
Mon 18:30  SSW 37/ 45 --------  ------   ----  ----  ----  ----   ----- 
Mon 19:00  SSW 39/ 46 --------  ------   ----  ----  ----  ----   ----- 
Mon 19:30  SSW 39/ 48 --------  ------   ----  ----  ----  ----   ----- 
Mon 20:00    S 41/ 50 --------  ------   ----  ----  ----  ----   ----- 
Mon 20:30    S 37/ 43 --------  ------   ----  ----  ----  ----   ----- 
Mon 21:00    S 37/ 48 --------  ------   ----  ----  ----  ----   ----- 
Mon 21:30  SSW 37/ 43 --------  ------   ----  ----  ----  ----   ----- 
Mon 22:00  SSW 39/ 46 --------  ------   ----  ----  ----  ----   ----- 
Mon 22:30  SSW 39/ 48 --------  ------   ----  ----  ----  ----   ----- 

PEARCE RAAF

Site: 009053
Alt: 40.0m
35km NNE of PERTH CBD


  Time     Wind        Temp  DP   Baro     Rain since   Rain past  Vis(m), Cloud(base in m), Weather
  local        km/h                         9am  last   hr   10m    
Mon 17:00   SW 26/ 33  25.8 14.6  1009.0    0.0   0.0   0.0   0.0   10000 
Mon 17:00   SW 26/ 33  25.8 14.6  1009.0    0.0   0.0  ----   0.0   10000 
Mon 17:30   SW 26/ 32  24.6 14.7  1009.2    0.0   0.0   0.0   0.0   10000 
Mon 17:30   SW 26/ 32  24.6 14.7  1009.2    0.0   0.0  ----   0.0   10000 
Mon 18:00  WSW 24/ 32  23.2 15.3  1009.7    0.0   0.0   0.0   0.0   10000 
Mon 18:00  WSW 24/ 32  23.2 15.3  1009.7    0.0   0.0  ----   0.0   10000 
Mon 18:30   SW 28/ 35  21.9 15.3  1010.0    0.0   0.0   0.0   0.0   10000 
Mon 19:00   SW 26/ 33  20.1 15.5  1010.6    0.0   0.0   0.0   0.0   10000 
Mon 19:30   SW 22/ 28  19.1 15.4  1010.6    0.0   0.0   0.0   0.0   10000 
Mon 20:00   SW 17/ 22  18.5 15.2  1010.8    0.0   0.0   0.0   0.0   10000 
Mon 20:30   SW 20/ 30  18.4 15.1  1011.1    0.0   0.0   0.0   0.0   10000 
Mon 21:00   SW 15/ 20  18.0 14.9  1011.3    0.0   0.0   0.0   0.0   10000 
Mon 21:30   SW 13/ 19  17.7 14.8  1011.4    0.0   0.0   0.0   0.0   10000 
Mon 22:00   SW  9/ 13  17.1 14.4  1011.7    0.0   0.0   0.0   0.0   10000 
Mon 22:30    W  7/  9  16.8 14.3  1011.7    0.0   0.0   0.0   0.0   10000 

PEMBERTON AG STATION

Site: 009GPM
Alt: m
km of


  Time     Wind        Temp  DP   Baro     Rain since   Rain past  Vis(m), Cloud(base in m), Weather
  local        km/h                         9am  last   hr   10m    
Mon 17:00   SW 17/ 30  18.8 12.5  ------    0.0   0.0   0.0   0.0   ----- 
Mon 17:30  SSW 11/ 22  19.3 12.3  ------    0.0   0.0   0.0   0.0   ----- 
Mon 18:00    S 11/ 17  18.9 12.3  ------    0.0   0.0   0.0   0.0   ----- 
Mon 18:00    S 11/ 17  18.9 12.3  ------    0.0   0.0  ----   0.0   ----- 
Mon 18:30    S 11/ 20  17.5 12.2  ------    0.0   0.0   0.0   0.0   ----- 
Mon 19:00    S 11/ 17  16.4 11.7  ------    0.0   0.0   0.0   0.0   ----- 
Mon 19:00    S 11/ 17  16.4 11.7  ------    0.0   0.0  ----   0.0   ----- 
Mon 19:30  SSW  7/ 13  16.3 12.1  ------    0.0   0.0   0.0   0.0   ----- 
Mon 20:00  SSW  9/ 19  15.8 12.1  ------    0.0   0.0   0.0   0.0   ----- 
Mon 20:30  SSW  7/ 11  15.2 11.8  ------    0.0   0.0   0.0   0.0   ----- 
Mon 21:00    S  7/ 11  14.4 11.8  ------    0.0   0.0   0.0   0.0   ----- 
Mon 21:30    S  4/  7  12.9 11.1  ------    0.0   0.0   0.0   0.0   ----- 
Mon 21:30    S  4/  7  12.9 11.1  ------    0.0   0.0  ----   0.0   ----- 
Mon 22:00    S  6/  7  12.4 11.1  ------    0.0   0.0   0.0   0.0   ----- 
Mon 22:30    S  4/  4  11.5 10.4  ------    0.0   0.0   0.0   0.0   ----- 

PERTH AIRPORT

Site: 009021
Alt: 15.4m
11km ENE of PERTH CBD


  Time     Wind        Temp  DP   Baro     Rain since   Rain past  Vis(m), Cloud(base in m), Weather
  local        km/h                         9am  last   hr   10m    
Mon 17:00  WSW 26/ 33  25.2 14.3  1009.0    0.0   0.0   0.0   0.0   10000 
Mon 17:00  WSW 26/ 33  25.2 14.3  1009.0    0.0   0.0  ----   0.0   10000 
Mon 17:30   SW 30/ 39  24.3 14.5  1009.2    0.0   0.0   0.0   0.0   10000 
Mon 17:30   SW 30/ 39  24.3 14.5  1009.2    0.0   0.0  ----   0.0   10000 
Mon 18:00  WSW 30/ 35  23.2 15.2  1009.4    0.0   0.0   0.0   0.0   10000 
Mon 18:00  WSW 30/ 35  23.2 15.2  1009.4    0.0   0.0  ----   0.0   10000 
Mon 18:00  WSW 30/ 35  23.2 15.2  1009.4    0.0   0.0  ----   0.0   10000 
Mon 18:00  WSW 30/ 35  23.2 15.2  1009.4    0.0   0.0  ----   0.0   10000 
Mon 18:30  WSW 26/ 35  21.9 15.6  1010.0    0.0   0.0   0.0   0.0   10000 
Mon 19:00   SW 28/ 35  20.5 15.5  1010.2    0.0   0.0   0.0   0.0   10000 
Mon 19:30   SW 22/ 30  19.9 15.3  1010.5    0.0   0.0   0.0   0.0  *10000|FE 390st 
Mon 19:30   SW 22/ 30  19.9 15.3  1010.5    0.0   0.0  ----   0.0  *10000|FE 390st 
Mon 20:00   SW 24/ 33  19.5 15.3  1010.7    0.0   0.0   0.0   0.0  *10000|FE 390st 
Mon 20:30   SW 28/ 33  19.4 15.0  1010.9    0.0   0.0   0.0   0.0  *10000|FE 390st 
Mon 20:30   SW 28/ 33  19.4 15.0  1010.9    0.0   0.0  ----   0.0  *10000|FE 390st 
Mon 21:00   SW 24/ 32  19.2 14.7  1011.1    0.0   0.0   0.0   0.0   10000 
Mon 21:30   SW 19/ 24  19.1 14.8  1011.3    0.0   0.0   0.0   0.0   10000 
Mon 22:00   SW 19/ 26  19.2 14.6  1011.5    0.0   0.0   0.0   0.0   10000 
Mon 22:30   SW 22/ 30  19.2 14.4  1011.6    0.0   0.0   0.0   0.0   10000 

PERTH METRO

Site: 009225
Alt: 24.9m
4km NNE of PERTH CBD


  Time     Wind        Temp  DP   Baro     Rain since   Rain past  Vis(m), Cloud(base in m), Weather
  local        km/h                         9am  last   hr   10m    
Mon 17:00   SW 20/ 33  23.5 15.8  1009.3    0.0   0.0   0.0   0.0   ----- 
Mon 17:00   SW 20/ 33  23.5 15.8  1009.3    0.0   0.0  ----   0.0   ----- 
Mon 17:30   SW 19/ 35  22.7 15.5  1009.5    0.0   0.0   0.0   0.0   ----- 
Mon 17:30   SW 19/ 35  22.7 15.5  1009.5    0.0   0.0  ----   0.0   ----- 
Mon 18:00   SW 19/ 37  21.7 15.5  1009.7    0.0   0.0   0.0   0.0   ----- 
Mon 18:00   SW 19/ 37  21.7 15.5  1009.7    0.0   0.0  ----   0.0   ----- 
Mon 18:30   SW 15/ 32  20.8 15.8  1010.2    0.0   0.0   0.0   0.0   ----- 
Mon 19:00   SW 17/ 30  19.8 15.7  1010.5    0.0   0.0   0.0   0.0   ----- 
Mon 19:30   SW 17/ 30  19.3 15.6  1010.7    0.0   0.0   0.0   0.0   ----- 
Mon 20:00   SW 19/ 33  19.1 15.4  1011.0    0.0   0.0   0.0   0.0   ----- 
Mon 20:30   SW 13/ 22  19.0 15.5  1011.0    0.0   0.0   0.0   0.0   ----- 
Mon 21:00  SSW 11/ 24  19.1 15.4  1011.2    0.0   0.0   0.0   0.0   ----- 
Mon 21:30  SSW 11/ 20  19.2 15.5  1011.4    0.0   0.0   0.0   0.0   ----- 
Mon 22:00   SW 13/ 28  19.2 15.7  1011.6    0.0   0.0   0.0   0.0   ----- 
Mon 22:30   SW 13/ 28  18.7 15.4  1011.8    0.0   0.0   0.0   0.0   ----- 

ROCKY GULLY

Site: 009964
Alt: 250.0m
87km ESE of MANJIMUP


  Time     Wind        Temp  DP   Baro     Rain since   Rain past  Vis(m), Cloud(base in m), Weather
  local        km/h                         9am  last   hr   10m    
Mon 17:00    S 15/ 24  20.8 11.7  ------    0.0   0.0   0.0   0.0   ----- 
Mon 17:00    S 15/ 24  20.8 11.7  ------    0.0   0.0  ----   0.0   ----- 
Mon 17:30    S 15/ 26  19.1 10.9  ------    0.0   0.0   0.0   0.0   ----- 
Mon 17:30    S 15/ 26  19.1 10.9  ------    0.0   0.0  ----   0.0   ----- 
Mon 18:00    S 17/ 26  18.0 11.3  ------    0.0   0.0   0.0   0.0   ----- 
Mon 18:00    S 17/ 26  18.0 11.3  ------    0.0   0.0  ----   0.0   ----- 
Mon 18:30    S 15/ 24  16.7 10.5  ------    0.0   0.0   0.0   0.0   ----- 
Mon 19:00    S 15/ 24  15.8 10.6  ------    0.0   0.0   0.0   0.0   ----- 
Mon 19:30    S  9/ 17  15.7 10.7  ------    0.0   0.0   0.0   0.0   ----- 
Mon 20:00    S 11/ 17  15.7 10.9  ------    0.0   0.0   0.0   0.0   ----- 
Mon 20:30    S  9/ 19  15.5 10.9  ------    0.0   0.0   0.0   0.0   ----- 
Mon 21:00    S  7/ 13  15.4 11.2  ------    0.0   0.0   0.0   0.0   ----- 
Mon 21:30    S 11/ 19  15.1 11.5  ------    0.0   0.0   0.0   0.0   ----- 
Mon 22:00    S  7/ 13  14.2 11.0  ------    0.0   0.0   0.0   0.0   ----- 
Mon 22:30    S  4/  7  13.8 11.1  ------    0.0   0.0   0.0   0.0   ----- 

ROTTNEST ISLAND

Site: 009193
Alt: 43.1m
34km W of PERTH CBD


  Time     Wind        Temp  DP   Baro     Rain since   Rain past  Vis(m), Cloud(base in m), Weather
  local        km/h                         9am  last   hr   10m    
Mon 17:00   SW 43/ 52  19.7 15.8  1009.3    0.0   0.0   0.0   0.0   ----- 
Mon 17:00   SW 43/ 52  19.7 15.8  1009.3    0.0   0.0  ----   0.0   ----- 
Mon 17:30   SW 45/ 58  19.5 15.8  1009.3    0.0   0.0   0.0   0.0   ----- 
Mon 17:30   SW 45/ 58  19.5 15.8  1009.3    0.0   0.0  ----   0.0   ----- 
Mon 18:00  SSW 46/ 58  18.9 15.4  1009.7    0.0   0.0   0.0   0.0   ----- 
Mon 18:00  SSW 46/ 58  18.9 15.4  1009.7    0.0   0.0  ----   0.0   ----- 
Mon 18:30  SSW 45/ 59  18.4 14.9  1009.9    0.0   0.0   0.0   0.0   ----- 
Mon 19:00  SSW 45/ 58  17.9 14.8  1010.1    0.0   0.0   0.0   0.0   ----- 
Mon 19:30  SSW 46/ 59  17.8 14.9  1010.4    0.0   0.0   0.0   0.0   ----- 
Mon 20:00  SSW 43/ 56  17.7 14.8  1010.5    0.0   0.0   0.0   0.0   ----- 
Mon 20:30  SSW 41/ 50  18.0 14.9  1010.9    0.0   0.0   0.0   0.0   ----- 
Mon 21:00  SSW 41/ 52  17.7 15.0  1011.1    0.0   0.0   0.0   0.0   ----- 
Mon 21:30  SSW 39/ 52  17.5 15.0  1011.5    0.0   0.0   0.0   0.0   ----- 
Mon 22:00  SSW 43/ 54  17.4 14.7  1011.6    0.0   0.0   0.0   0.0   ----- 
Mon 22:30  SSW 43/ 58  17.3 14.6  1011.7    0.0   0.0   0.0   0.0   ----- 

SCOTT RIVER AG STATION

Site: 009CTR
Alt: 30m
72km WNW of PEMBERTON


  Time     Wind        Temp  DP   Baro     Rain since   Rain past  Vis(m), Cloud(base in m), Weather
  local        km/h                         9am  last   hr   10m    
Mon 17:00    S 20/ 33  18.6 12.6  ------    0.0   0.0   0.0   0.0   ----- 
Mon 17:30  SSE 19/ 30  18.7 12.7  ------    0.0   0.0   0.0   0.0   ----- 
Mon 18:00    S 17/ 26  18.0 12.1  ------    0.0   0.0   0.0   0.0   ----- 
Mon 18:00    S 17/ 26  18.0 12.1  ------    0.0   0.0  ----   0.0   ----- 
Mon 18:30    S 17/ 26  17.5 12.2  ------    0.0   0.0   0.0   0.0   ----- 
Mon 19:00    S 13/ 22  17.2 12.0  ------    0.0   0.0   0.0   0.0   ----- 
Mon 19:00    S 13/ 22  17.2 12.0  ------    0.0   0.0  ----   0.0   ----- 
Mon 19:30    S 13/ 22  16.9 11.6  ------    0.0   0.0   0.0   0.0   ----- 
Mon 20:00    S  9/ 17  15.5 10.8  ------    0.0   0.0   0.0   0.0   ----- 
Mon 20:30    S  7/ 15  14.5 10.7  ------    0.0   0.0   0.0   0.0   ----- 
Mon 21:00    S  4/  7  13.6 10.3  ------    0.0   0.0   0.0   0.0   ----- 
Mon 21:30    S  4/  9  12.9 10.3  ------    0.0   0.0   0.0   0.0   ----- 
Mon 21:30    S  4/  9  12.9 10.3  ------    0.0   0.0  ----   0.0   ----- 
Mon 22:00    S  4/  6  12.8 10.6  ------    0.0   0.0   0.0   0.0   ----- 
Mon 22:30    S  4/  7  13.1 10.8  ------    0.0   0.0   0.0   0.0   ----- 

SHANNON

Site: 009968
Alt: 210.0m
40km SSE of MANJIMUP


  Time     Wind        Temp  DP   Baro     Rain since   Rain past  Vis(m), Cloud(base in m), Weather
  local        km/h                         9am  last   hr   10m    
Mon 17:00  SSW 22/ 32  17.9----  ------    0.0   0.0   0.0   0.0   ----- 
Mon 17:00  SSW 22/ 32  17.9----  ------    0.0   0.0  ----   0.0   ----- 
Mon 18:00    S 19/ 26  16.5----  ------    0.0   0.0   0.0   0.0   ----- 
Mon 18:00    S 19/ 26  16.5----  ------    0.0   0.0  ----   0.0   ----- 
Mon 19:00    S 19/ 24  15.7----  ------    0.0   0.0   0.0   0.0   ----- 
Mon 20:00    S 15/ 24  15.0----  ------    0.0   0.0   0.0   0.0   ----- 
Mon 21:00    S 11/ 15  14.0----  ------    0.0   0.0   0.0   0.0   ----- 
Mon 22:00   SW  7/  9  12.3----  ------    0.0   0.0   0.0   0.0   ----- 

SOUTH PERTH AG STATION

Site: 009GSP
Alt: m
km of


  Time     Wind        Temp  DP   Baro     Rain since   Rain past  Vis(m), Cloud(base in m), Weather
  local        km/h                         9am  last   hr   10m    
Mon 17:00  WSW  7/ 26  23.9 14.7  ------    0.0   0.0   0.0   0.0   ----- 
Mon 17:30   SW  7/ 19  23.4 15.3  ------    0.0   0.0   0.0   0.0   ----- 
Mon 18:00  WSW 11/ 26  22.1 15.6  ------    0.0   0.0   0.0   0.0   ----- 
Mon 18:00  WSW 11/ 26  22.1 15.6  ------    0.0   0.0  ----   0.0   ----- 
Mon 18:30   SW  7/ 19  21.0 15.5  ------    0.0   0.0   0.0   0.0   ----- 
Mon 19:00  WSW  6/ 20  20.2 15.2  ------    0.0   0.0   0.0   0.0   ----- 
Mon 19:00  WSW  6/ 20  20.2 15.2  ------    0.0   0.0  ----   0.0   ----- 
Mon 19:30  WSW  7/ 17  19.7 15.3  ------    0.0   0.0   0.0   0.0   ----- 
Mon 20:00  SSW  6/ 17  19.4 15.2  ------    0.0   0.0   0.0   0.0   ----- 
Mon 20:30   SW  4/ 11  19.3 15.1  ------    0.0   0.0   0.0   0.0   ----- 
Mon 21:00   SW  4/ 15  19.4 15.0  ------    0.0   0.0   0.0   0.0   ----- 
Mon 21:30   SW  2/  7  19.3 15.1  ------    0.0   0.0   0.0   0.0   ----- 
Mon 21:30   SW  2/  7  19.3 15.1  ------    0.0   0.0  ----   0.0   ----- 
Mon 22:00  WSW  2/  9  19.5 15.0  ------    0.0   0.0   0.0   0.0   ----- 
Mon 22:30   SW  6/ 17  19.2 15.0  ------    0.0   0.0   0.0   0.0   ----- 

STIRLINGS SOUTH AG STATION

Site: 009LGS
Alt: 150m
26km ENE of MOUNT BARKER


  Time     Wind        Temp  DP   Baro     Rain since   Rain past  Vis(m), Cloud(base in m), Weather
  local        km/h                         9am  last   hr   10m    
Mon 17:00  SSE 11/ 20  23.8 13.1  ------    0.0   0.0   0.0   0.0   ----- 
Mon 17:30    S 15/ 26  22.0 12.9  ------    0.0   0.0   0.0   0.0   ----- 
Mon 18:00  SSE 15/ 24  20.3 13.2  ------    0.0   0.0   0.0   0.0   ----- 
Mon 18:00  SSE 15/ 24  20.3 13.2  ------    0.0   0.0  ----   0.0   ----- 
Mon 18:30    S 15/ 26  18.8 12.8  ------    0.0   0.0   0.0   0.0   ----- 
Mon 19:00    S 11/ 19  17.3 12.6  ------    0.0   0.0   0.0   0.0   ----- 
Mon 19:00    S 11/ 19  17.3 12.6  ------    0.0   0.0  ----   0.0   ----- 
Mon 19:30   SE  6/ 13  16.2 12.7  ------    0.0   0.0   0.0   0.0   ----- 
Mon 20:00  SSE  6/  9  15.2 12.6  ------    0.0   0.0   0.0   0.0   ----- 
Mon 20:30   SE  4/  7  14.9 12.2  ------    0.0   0.0   0.0   0.0   ----- 
Mon 21:00  ESE  4/  7  14.4 12.1  ------    0.0   0.0   0.0   0.0   ----- 
Mon 21:30  ESE  4/ 11  14.3 12.1  ------    0.0   0.0   0.0   0.0   ----- 
Mon 21:30  ESE  4/ 11  14.3 12.1  ------    0.0   0.0  ----   0.0   ----- 
Mon 22:00   SE  6/ 13  13.9 12.0  ------    0.0   0.0   0.0   0.0   ----- 
Mon 22:30    C  0/  4  13.0 11.7  ------    0.0   0.0   0.0   0.0   ----- 

SWANBOURNE

Site: 009215
Alt: 41.0m
9km E of PERTH CBD


  Time     Wind        Temp  DP   Baro     Rain since   Rain past  Vis(m), Cloud(base in m), Weather
  local        km/h                         9am  last   hr   10m    
Mon 17:00  SSW 24/ 35  21.4 17.6  ------    0.0   0.0   0.0   0.0   ----- 
Mon 17:00  SSW 24/ 35  21.4 17.6  ------    0.0   0.0  ----   0.0   ----- 
Mon 17:30  SSW 22/ 35  20.6 17.4  ------    0.0   0.0   0.0   0.0   ----- 
Mon 17:30  SSW 22/ 35  20.6 17.4  ------    0.0   0.0  ----   0.0   ----- 
Mon 18:00  SSW 24/ 39  19.9 17.1  ------    0.0   0.0   0.0   0.0   ----- 
Mon 18:00  SSW 24/ 39  19.9 17.1  ------    0.0   0.0  ----   0.0   ----- 
Mon 18:30  SSW 26/ 37  19.4 17.0  ------    0.0   0.0   0.0   0.0   ----- 
Mon 19:00  SSW 28/ 41  18.9 16.9  ------    0.0   0.0   0.0   0.0   ----- 
Mon 19:30  SSW 24/ 35  18.5 16.7  ------    0.0   0.0   0.0   0.0   ----- 
Mon 20:00    S 24/ 39  18.5 16.8  ------    0.0   0.0   0.0   0.0   ----- 
Mon 20:30    S 22/ 37  18.4 16.4  ------    0.0   0.0   0.0   0.0   ----- 
Mon 21:00  SSW 22/ 37  18.7 16.3  ------    0.0   0.0   0.0   0.0   ----- 
Mon 21:30    S 24/ 37  18.6 16.2  ------    0.0   0.0   0.0   0.0   ----- 
Mon 22:00  SSW 24/ 37  18.3 16.5  ------    0.0   0.0   0.0   0.0   ----- 
Mon 22:30  SSW 28/ 41  18.3 16.6  ------    0.0   0.0   0.0   0.0   ----- 

VASSE AG STATION

Site: 009GVA
Alt: m
11km SSE of BUSSELTON


  Time     Wind        Temp  DP   Baro     Rain since   Rain past  Vis(m), Cloud(base in m), Weather
  local        km/h                         9am  last   hr   10m    
Mon 17:00    S 19/ 35  22.0 13.3  ------    0.0   0.0   0.0   0.0   ----- 
Mon 17:30    S 17/ 32  20.8 13.4  ------    0.0   0.0   0.0   0.0   ----- 
Mon 18:00    S 17/ 37  19.4 13.0  ------    0.0   0.0   0.0   0.0   ----- 
Mon 18:00    S 17/ 37  19.4 13.0  ------    0.0   0.0  ----   0.0   ----- 
Mon 18:30    S 13/ 22  18.7 13.1  ------    0.0   0.0   0.0   0.0   ----- 
Mon 19:00    S 13/ 28  17.5 13.2  ------    0.0   0.0   0.0   0.0   ----- 
Mon 19:00    S 13/ 28  17.5 13.2  ------    0.0   0.0  ----   0.0   ----- 
Mon 19:30    S 13/ 24  16.5 12.9  ------    0.0   0.0   0.0   0.0   ----- 
Mon 20:00    S 13/ 26  16.3 12.8  ------    0.0   0.0   0.0   0.0   ----- 
Mon 20:30  SSW 11/ 24  16.1 12.8  ------    0.0   0.0   0.0   0.0   ----- 
Mon 21:00  SSW  9/ 17  15.5 12.2  ------    0.0   0.0   0.0   0.0   ----- 
Mon 21:30  SSW  4/  7  14.6 12.6  ------    0.0   0.0   0.0   0.0   ----- 
Mon 21:30  SSW  4/  7  14.6 12.6  ------    0.0   0.0  ----   0.0   ----- 
Mon 22:00   SW  4/ 11  14.1 13.0  ------    0.0   0.0   0.0   0.0   ----- 
Mon 22:30   SW  4/ 15  13.6 12.3  ------    0.0   0.0   0.0   0.0   ----- 

WANNEROO AG STATION

Site: 009GWN
Alt: m
km of


  Time     Wind        Temp  DP   Baro     Rain since   Rain past  Vis(m), Cloud(base in m), Weather
  local        km/h                         9am  last   hr   10m    
Mon 17:00  SSW 13/ 30  21.4 16.2  ------    0.0   0.0   0.0   0.0   ----- 
Mon 17:30   SW 13/ 30  20.3 16.4  ------    0.0   0.0   0.0   0.0   ----- 
Mon 18:00  SSW 11/ 22  20.0 16.4  ------    0.0   0.0   0.0   0.0   ----- 
Mon 18:00  SSW 11/ 22  20.0 16.4  ------    0.0   0.0  ----   0.0   ----- 
Mon 18:30  SSW 11/ 30  19.5 16.2  ------    0.0   0.0   0.0   0.0   ----- 
Mon 19:00  SSW 11/ 28  19.0 15.8  ------    0.0   0.0   0.0   0.0   ----- 
Mon 19:00  SSW 11/ 28  19.0 15.8  ------    0.0   0.0  ----   0.0   ----- 
Mon 19:30  SSW 11/ 30  18.8 15.7  ------    0.0   0.0   0.0   0.0   ----- 
Mon 20:00  SSW 13/ 24  18.7 15.6  ------    0.0   0.0   0.0   0.0   ----- 
Mon 20:30  SSW 11/ 26  18.4 15.5  ------    0.0   0.0   0.0   0.0   ----- 
Mon 21:00  SSW  9/ 22  18.3 15.6  ------    0.0   0.0   0.0   0.0   ----- 
Mon 21:30  SSW  7/ 19  18.3 15.6  ------    0.0   0.0   0.0   0.0   ----- 
Mon 21:30  SSW  7/ 19  18.3 15.6  ------    0.0   0.0  ----   0.0   ----- 
Mon 22:00  SSW  9/ 20  18.2 15.5  ------    0.0   0.0   0.0   0.0   ----- 

WAROONA

Site: 009GWR
Alt: 36 m
39km SSE of MANDURAH


  Time     Wind        Temp  DP   Baro     Rain since   Rain past  Vis(m), Cloud(base in m), Weather
  local        km/h                         9am  last   hr   10m    
Mon 17:00   SW 11/---  27.6 12.9  ------    0.0   0.0   0.0   0.0   ----- 
Mon 17:30   SW 11/---  25.8 12.8  ------    0.0   0.0   0.0   0.0   ----- 
Mon 18:00  SSW  9/---  24.9 12.8  ------    0.0   0.0   0.0   0.0   ----- 
Mon 18:00  SSW  9/---  24.9 12.8  ------    0.0   0.0  ----   0.0   ----- 
Mon 18:30   SW  9/---  23.9 13.2  ------    0.0   0.0   0.0   0.0   ----- 
Mon 19:00   SW  9/---  22.2 13.0  ------    0.0   0.0   0.0   0.0   ----- 
Mon 19:00   SW  9/---  22.2 13.0  ------    0.0   0.0  ----   0.0   ----- 
Mon 19:30   SW  7/---  20.9 12.8  ------    0.0   0.0   0.0   0.0   ----- 
Mon 20:00   SW  6/---  20.0 12.5  ------    0.0   0.0   0.0   0.0   ----- 
Mon 20:30  SSW  7/---  19.8 11.7  ------    0.0   0.0   0.0   0.0   ----- 
Mon 21:00    S  7/---  18.9 11.8  ------    0.0   0.0   0.0   0.0   ----- 
Mon 21:30    S  7/---  18.2 11.6  ------    0.0   0.0   0.0   0.0   ----- 
Mon 21:30    S  7/---  18.2 11.6  ------    0.0   0.0  ----   0.0   ----- 
Mon 22:00    S  7/---  17.6 11.6  ------    0.0   0.0   0.0   0.0   ----- 
Mon 22:30    S  7/---  16.9 11.3  ------    0.0   0.0   0.0   0.0   ----- 

WELLSTEAD AG STATION

Site: 009GWE
Alt: m
89km NE of ALBANY


  Time     Wind        Temp  DP   Baro     Rain since   Rain past  Vis(m), Cloud(base in m), Weather
  local        km/h                         9am  last   hr   10m    
Mon 17:00    S 17/ 30  20.0 13.5  ------    0.0   0.0   0.0   0.0   ----- 
Mon 17:30    S 11/ 20  20.3 13.5  ------    0.0   0.0   0.0   0.0   ----- 
Mon 18:00    S 15/ 30  18.7 13.5  ------    0.0   0.0   0.0   0.0   ----- 
Mon 18:00    S 15/ 30  18.7 13.5  ------    0.0   0.0  ----   0.0   ----- 
Mon 18:30    S 13/ 24  17.7 13.5  ------    0.0   0.0   0.0   0.0   ----- 
Mon 19:00    S 15/ 26  16.9 13.4  ------    0.0   0.0   0.0   0.0   ----- 
Mon 19:00    S 15/ 26  16.9 13.4  ------    0.0   0.0  ----   0.0   ----- 
Mon 19:30    S 11/ 20  16.8 13.0  ------    0.0   0.0   0.0   0.0   ----- 
Mon 20:00    S 11/ 22  16.7 12.8  ------    0.0   0.0   0.0   0.0   ----- 
Mon 20:30    S  7/ 15  16.5 12.7  ------    0.0   0.0   0.0   0.0   ----- 
Mon 21:00    S  6/ 15  16.4 12.6  ------    0.0   0.0   0.0   0.0   ----- 
Mon 21:30    S  9/ 19  16.4 12.7  ------    0.0   0.0   0.0   0.0   ----- 
Mon 21:30    S  9/ 19  16.4 12.7  ------    0.0   0.0  ----   0.0   ----- 
Mon 22:00    S  9/ 17  16.3 12.5  ------    0.0   0.0   0.0   0.0   ----- 
Mon 22:30    S  7/ 15  16.2 12.4  ------    0.0   0.0   0.0   0.0   ----- 

WILYABRUP AG STATION

Site: 009LBP
Alt: 100m
30km SW of BUSSELTON


  Time     Wind        Temp  DP   Baro     Rain since   Rain past  Vis(m), Cloud(base in m), Weather
  local        km/h                         9am  last   hr   10m    
Mon 17:00  SSW  9/ 22  20.0 12.1  ------    0.0   0.0   0.0   0.0   ----- 
Mon 17:00  SSW  9/ 22  20.0 12.1  ------    0.0   0.0  ----   0.0   ----- 
Mon 17:00  SSW  9/ 22  20.0 12.1  ------    0.0   0.0  ----   0.0   ----- 
Mon 17:30    S  7/ 20  19.7 11.7  ------    0.0   0.0   0.0   0.0   ----- 
Mon 17:30    S  7/ 20  19.7 11.7  ------    0.0   0.0  ----   0.0   ----- 
Mon 18:00    S  6/ 22  18.8 11.1  ------    0.0   0.0   0.0   0.0   ----- 
Mon 18:00    S  6/ 22  18.8 11.1  ------    0.0   0.0  ----   0.0   ----- 
Mon 18:00    S  6/ 22  18.8 11.1  ------    0.0   0.0  ----   0.0   ----- 
Mon 18:00    S  6/ 22  18.8 11.1  ------    0.0   0.0  ----   0.0   ----- 
Mon 18:30    S  6/ 22  18.0 10.9  ------    0.0   0.0   0.0   0.0   ----- 
Mon 18:30    S  6/ 22  18.0 10.9  ------    0.0   0.0  ----   0.0   ----- 
Mon 19:00    S  6/ 20  16.7 10.9  ------    0.0   0.0   0.0   0.0   ----- 
Mon 19:30    S  4/ 13  15.8 10.9  ------    0.0   0.0   0.0   0.0   ----- 
Mon 19:30    S  4/ 13  15.8 10.9  ------    0.0   0.0  ----   0.0   ----- 
Mon 20:00    S  6/ 17  16.3 10.8  ------    0.0   0.0   0.0   0.0   ----- 
Mon 20:30    S  6/ 17  16.1 10.5  ------    0.0   0.0   0.0   0.0   ----- 
Mon 20:30    S  6/ 17  16.1 10.5  ------    0.0   0.0  ----   0.0   ----- 
Mon 21:00    S  4/ 15  15.0 10.2  ------    0.0   0.0   0.0   0.0   ----- 
Mon 21:00    S  4/ 15  15.0 10.2  ------    0.0   0.0  ----   0.0   ----- 
Mon 21:30    S  2/  6  13.9 10.2  ------    0.0   0.0   0.0   0.0   ----- 
Mon 21:30    S  2/  6  13.9 10.2  ------    0.0   0.0  ----   0.0   ----- 
Mon 22:00    C  0/  6  13.1 10.1  ------    0.0   0.0   0.0   0.0   ----- 
Mon 22:00    C  0/  6  13.1 10.1  ------    0.0   0.0  ----   0.0   ----- 
Mon 22:30    C  0/  2  12.5  9.7  ------    0.0   0.0   0.0   0.0   ----- 

WITCHCLIFFE

Site: 009746
Alt: 80.0m
9km SSE of MARGARET RIVER


  Time     Wind        Temp  DP   Baro     Rain since   Rain past  Vis(m), Cloud(base in m), Weather
  local        km/h                         9am  last   hr   10m    
Mon 17:00    S 22/ 33  18.8 12.1  1012.7    0.0   0.0   0.0   0.0   ----- 
Mon 17:00    S 22/ 33  18.8 12.1  1012.7    0.0   0.0  ----   0.0   ----- 
Mon 17:30  SSE 24/ 33  18.7 11.8  1012.4    0.0   0.0   0.0   0.0   ----- 
Mon 17:30  SSE 24/ 33  18.7 11.8  1012.4    0.0   0.0  ----   0.0   ----- 
Mon 18:00    S 22/ 33  17.5 11.3  1012.7    0.0   0.0   0.0   0.0   ----- 
Mon 18:00    S 22/ 33  17.5 11.3  1012.7    0.0   0.0  ----   0.0   ----- 
Mon 18:30    S 19/ 32  17.0 11.5  1012.9    0.0   0.0   0.0   0.0   ----- 
Mon 19:00    S 19/ 26  16.7 11.2  1013.0    0.0   0.0   0.0   0.0   ----- 
Mon 19:30    S 22/ 30  16.4 10.9  1013.2    0.0   0.0   0.0   0.0   ----- 
Mon 20:00    S 17/ 28  15.9 10.7  1013.3    0.0   0.0   0.0   0.0   ----- 
Mon 20:30    S 11/ 15  15.0 10.6  1013.5    0.0   0.0   0.0   0.0   ----- 
Mon 21:00    S  7/ 11  14.3 10.5  1013.6    0.0   0.0   0.0   0.0   ----- 
Mon 21:30  SSW  7/  9  13.2 10.4  1013.8    0.0   0.0   0.0   0.0   ----- 
Mon 22:00  SSW  7/ 11  12.9 10.4  1013.9    0.0   0.0   0.0   0.0   ----- 
Mon 22:30  SSW  9/ 13  13.7 10.7  1013.9    0.0   0.0   0.0   0.0   -----